| time (UTC) | temp C | wind direction | speed KPH | gust KPH | rain 1hr cm | rain 24hr cm | rain mn cm | humidity % | barometer mb |
| 20260507035604 | 14 | 171 | 0.0 | 6.4 | 0.00 | 0.00 | 0.00 | 56 | 1016.5 |
| 20260507035504 | 14 | 171 | 0.0 | 6.4 | 0.00 | 0.00 | 0.00 | 56 | 1016.8 |
| 20260507035404 | 14 | 171 | 0.0 | 6.4 | 0.00 | 0.00 | 0.00 | 57 | 1016.7 |
| 20260507035306 | 14 | 170 | 0.0 | 6.4 | 0.00 | 0.00 | 0.00 | 57 | 1016.6 |
| 20260507035204 | 14 | 171 | 0.0 | 6.4 | 0.00 | 0.00 | 0.00 | 57 | 1016.8 |
| 20260507035104 | 14 | 171 | 0.0 | 6.4 | 0.00 | 0.00 | 0.00 | 57 | 1016.8 |
| 20260507035004 | 14 | 171 | 0.0 | 4.8 | 0.00 | 0.00 | 0.00 | 57 | 1016.8 |
| 20260507034925 | 13 | 170 | 0.0 | 4.8 | 0.00 | 0.00 | 0.00 | 57 | 1016.8 |
| 20260507034804 | 13 | 170 | 0.0 | 4.8 | 0.00 | 0.00 | 0.00 | 58 | 1016.7 |
| 20260507034704 | 13 | 170 | 0.0 | 4.8 | 0.00 | 0.00 | 0.00 | 58 | 1017.0 |
| 20260507034604 | 13 | 176 | 0.0 | 4.8 | 0.00 | 0.00 | 0.00 | 59 | 1016.8 |
| 20260507034504 | 13 | 175 | 0.0 | 4.8 | 0.00 | 0.00 | 0.00 | 59 | 1016.7 |
| 20260507034404 | 13 | 175 | 0.0 | 4.8 | 0.00 | 0.00 | 0.00 | 59 | 1016.8 |
| 20260507034304 | 13 | 177 | 0.0 | 4.8 | 0.00 | 0.00 | 0.00 | 59 | 1016.8 |
| 20260507034204 | 13 | 175 | 0.0 | 3.2 | 0.00 | 0.00 | 0.00 | 59 | 1016.8 |
| 20260507034104 | 13 | 176 | 0.0 | 3.2 | 0.00 | 0.00 | 0.00 | 59 | 1016.7 |
| 20260507034004 | 13 | 177 | 0.0 | 3.2 | 0.00 | 0.00 | 0.00 | 59 | 1016.6 |
| 20260507033904 | 13 | 177 | 0.0 | 3.2 | 0.00 | 0.00 | 0.00 | 59 | 1016.7 |
| 20260507033804 | 13 | 175 | 0.0 | 3.2 | 0.00 | 0.00 | 0.00 | 59 | 1016.5 |
| 20260507033704 | 13 | 175 | 0.0 | 3.2 | 0.00 | 0.00 | 0.00 | 59 | 1016.6 |
| 20260507033604 | 13 | 169 | 0.0 | 3.2 | 0.00 | 0.00 | 0.00 | 59 | 1016.4 |
| 20260507033525 | 13 | 167 | 0.0 | 3.2 | 0.00 | 0.00 | 0.00 | 59 | 1016.5 |
| 20260507033404 | 13 | 174 | 0.0 | 3.2 | 0.00 | 0.00 | 0.00 | 59 | 1016.6 |
| 20260507033304 | 13 | 176 | 0.0 | 3.2 | 0.00 | 0.00 | 0.00 | 59 | 1016.5 |
| 20260507033204 | 13 | 176 | 0.0 | 3.2 | 0.00 | 0.00 | 0.00 | 60 | 1016.5 |
| 20260507033104 | 13 | 179 | 0.0 | 3.2 | 0.00 | 0.00 | 0.00 | 59 | 1016.4 |
| 20260507033004 | 13 | 180 | 0.0 | 1.6 | 0.00 | 0.00 | 0.00 | 60 | 1016.2 |
| 20260507032904 | 13 | 181 | 0.0 | 1.6 | 0.00 | 0.00 | 0.00 | 60 | 1016.5 |
| 20260507032804 | 13 | 195 | 0.0 | 3.2 | 0.00 | 0.00 | 0.00 | 59 | 1016.7 |
| 20260507032704 | 13 | 205 | 0.0 | 3.2 | 0.00 | 0.00 | 0.00 | 59 | 1016.5 |
| 20260507032604 | 13 | 205 | 0.0 | 3.2 | 0.00 | 0.00 | 0.00 | 59 | 1016.5 |
| 20260507032504 | 13 | 206 | 0.0 | 3.2 | 0.00 | 0.00 | 0.00 | 59 | 1016.6 |
| 20260507032404 | 13 | 209 | 0.0 | 3.2 | 0.00 | 0.00 | 0.00 | 59 | 1016.5 |
| 20260507032306 | 13 | 209 | 0.0 | 3.2 | 0.00 | 0.00 | 0.00 | 59 | 1016.6 |
| 20260507032204 | 13 | 198 | 0.0 | 4.8 | 0.00 | 0.00 | 0.00 | 59 | 1016.4 |
| 20260507032104 | 13 | 198 | 0.0 | 4.8 | 0.00 | 0.00 | 0.00 | 59 | 1016.5 |
| 20260507032004 | 13 | 199 | 0.0 | 4.8 | 0.00 | 0.00 | 0.00 | 59 | 1016.7 |
| 20260507031925 | 13 | 199 | 0.0 | 4.8 | 0.00 | 0.00 | 0.00 | 59 | 1016.4 |
| 20260507031804 | 13 | 188 | 0.0 | 4.8 | 0.00 | 0.00 | 0.00 | 60 | 1016.6 |
| 20260507031704 | 13 | 173 | 0.0 | 4.8 | 0.00 | 0.00 | 0.00 | 60 | 1016.2 |
| 20260507031604 | 13 | 172 | 0.0 | 4.8 | 0.00 | 0.00 | 0.00 | 60 | 1016.4 |
| 20260507031504 | 13 | 172 | 0.0 | 4.8 | 0.00 | 0.00 | 0.00 | 60 | 1016.4 |
| 20260507031404 | 13 | 172 | 0.0 | 4.8 | 0.00 | 0.00 | 0.00 | 60 | 1016.4 |
| 20260507031304 | 13 | 172 | 0.0 | 4.8 | 0.00 | 0.00 | 0.00 | 60 | 1016.5 |
| 20260507031204 | 12 | 173 | 0.0 | 3.2 | 0.00 | 0.00 | 0.00 | 61 | 1016.3 |
| 20260507031104 | 12 | 173 | 0.0 | 3.2 | 0.00 | 0.00 | 0.00 | 60 | 1016.4 |
| 20260507031004 | 12 | 173 | 0.0 | 3.2 | 0.00 | 0.00 | 0.00 | 60 | 1016.4 |
| 20260507030904 | 12 | 174 | 0.0 | 3.2 | 0.00 | 0.00 | 0.00 | 60 | 1016.4 |
| 20260507030804 | 12 | 174 | 0.0 | 3.2 | 0.00 | 0.00 | 0.00 | 60 | 1016.4 |
| 20260507030704 | 12 | 172 | 0.0 | 3.2 | 0.00 | 0.00 | 0.00 | 60 | 1016.2 |
| 20260507030604 | 12 | 185 | 0.0 | 4.8 | 0.00 | 0.00 | 0.00 | 61 | 1016.5 |
| 20260507030504 | 12 | 185 | 0.0 | 4.8 | 0.00 | 0.00 | 0.00 | 61 | 1016.5 |
| 20260507030404 | 12 | 182 | 0.0 | 4.8 | 0.00 | 0.00 | 0.00 | 61 | 1016.5 |
| 20260507030325 | 12 | 182 | 0.0 | 4.8 | 0.00 | 0.00 | 0.00 | 61 | 1016.5 |
| 20260507030204 | 12 | 185 | 0.0 | 4.8 | 0.00 | 0.00 | 0.00 | 61 | 1016.3 |
| 20260507030004 | 12 | 185 | 0.0 | 4.8 | 0.00 | 0.00 | 0.00 | 61 | 1016.4 |
| 20260507025925 | 12 | 185 | 0.0 | 4.8 | 0.00 | 0.00 | 0.00 | 61 | 1016.2 |
| 20260507025804 | 12 | 188 | 0.0 | 4.8 | 0.00 | 0.00 | 0.00 | 61 | 1016.6 |
| 20260507025704 | 12 | 188 | 0.0 | 4.8 | 0.00 | 0.00 | 0.00 | 61 | 1016.3 |
| 20260507025604 | 12 | 170 | 0.0 | 1.6 | 0.00 | 0.00 | 0.00 | 61 | 1016.4 |
| 20260507025525 | 12 | 170 | 0.0 | 1.6 | 0.00 | 0.00 | 0.00 | 61 | 1016.2 |
| 20260507025404 | 12 | 180 | 0.0 | 1.6 | 0.00 | 0.00 | 0.00 | 61 | 1016.1 |
| 20260507025306 | 12 | 180 | 0.0 | 1.6 | 0.00 | 0.00 | 0.00 | 61 | 1016.3 |
| 20260507025204 | 12 | 181 | 0.0 | 1.6 | 0.00 | 0.00 | 0.00 | 61 | 1016.3 |
| 20260507025104 | 12 | 187 | 0.0 | 3.2 | 0.00 | 0.00 | 0.00 | 61 | 1016.3 |
| 20260507025004 | 12 | 187 | 0.0 | 3.2 | 0.00 | 0.00 | 0.00 | 61 | 1016.3 |
| 20260507024904 | 12 | 187 | 0.0 | 3.2 | 0.00 | 0.00 | 0.00 | 61 | 1016.5 |
| 20260507024825 | 12 | 187 | 0.0 | 3.2 | 0.00 | 0.00 | 0.00 | 61 | 1016.3 |
| 20260507024704 | 12 | 187 | 0.0 | 3.2 | 0.00 | 0.00 | 0.00 | 61 | 1016.5 |
| 20260507024604 | 12 | 191 | 0.0 | 3.2 | 0.00 | 0.00 | 0.00 | 61 | 1016.5 |
| 20260507024525 | 12 | 191 | 0.0 | 3.2 | 0.00 | 0.00 | 0.00 | 61 | 1016.4 |
| 20260507024404 | 12 | 191 | 0.0 | 3.2 | 0.00 | 0.00 | 0.00 | 61 | 1016.2 |
| 20260507024304 | 12 | 191 | 0.0 | 3.2 | 0.00 | 0.00 | 0.00 | 61 | 1016.3 |
| 20260507024225 | 12 | 195 | 0.0 | 3.2 | 0.00 | 0.00 | 0.00 | 61 | 1016.3 |
| 20260507024125 | 12 | 0 | 0.0 | 0.0 | 0.00 | 0.00 | 0.00 | 61 | 1016.3 |
| 20260507024025 | 12 | 0 | 0.0 | 0.0 | 0.00 | 0.00 | 0.00 | 61 | 1016.3 |
| 20260507023904 | 12 | 0 | 0.0 | 0.0 | 0.00 | 0.00 | 0.00 | 61 | 1016.3 |
| 20260507023804 | 12 | 0 | 0.0 | 0.0 | 0.00 | 0.00 | 0.00 | 61 | 1016.2 |
| 20260507023704 | 12 | 190 | 0.0 | 3.2 | 0.00 | 0.00 | 0.00 | 61 | 1016.4 |
| 20260507023625 | 12 | 183 | 0.0 | 3.2 | 0.00 | 0.00 | 0.00 | 61 | 1016.2 |
| 20260507023504 | 12 | 183 | 0.0 | 3.2 | 0.00 | 0.00 | 0.00 | 61 | 1016.4 |
| 20260507023425 | 12 | 186 | 0.0 | 4.8 | 0.00 | 0.00 | 0.00 | 61 | 1016.1 |
| 20260507023304 | 12 | 183 | 0.0 | 4.8 | 0.00 | 0.00 | 0.00 | 61 | 1016.3 |
| 20260507023204 | 13 | 182 | 0.0 | 4.8 | 0.00 | 0.00 | 0.00 | 60 | 1016.4 |
| 20260507023103 | 13 | 182 | 0.0 | 4.8 | 0.00 | 0.00 | 0.00 | 60 | 1016.4 |
| 20260507023004 | 13 | 185 | 0.0 | 4.8 | 0.00 | 0.00 | 0.00 | 60 | 1016.4 |
| 20260507022925 | 13 | 185 | 0.0 | 4.8 | 0.00 | 0.00 | 0.00 | 60 | 1016.3 |
| 20260507022825 | 13 | 184 | 0.0 | 4.8 | 0.00 | 0.00 | 0.00 | 60 | 1016.3 |
| 20260507022704 | 13 | 186 | 0.0 | 4.8 | 0.00 | 0.00 | 0.00 | 60 | 1016.3 |
| 20260507022604 | 13 | 191 | 0.0 | 4.8 | 0.00 | 0.00 | 0.00 | 60 | 1016.2 |
| 20260507022504 | 13 | 192 | 0.0 | 4.8 | 0.00 | 0.00 | 0.00 | 60 | 1016.4 |
| 20260507022404 | 13 | 192 | 0.0 | 4.8 | 0.00 | 0.00 | 0.00 | 60 | 1016.3 |
| 20260507022306 | 13 | 196 | 0.0 | 4.8 | 0.00 | 0.00 | 0.00 | 60 | 1016.4 |
| 20260507022225 | 13 | 196 | 0.0 | 4.8 | 0.00 | 0.00 | 0.00 | 60 | 1016.2 |
| 20260507022104 | 13 | 199 | 0.0 | 4.8 | 0.00 | 0.00 | 0.00 | 60 | 1016.4 |
| 20260507022025 | 13 | 198 | 0.0 | 4.8 | 0.00 | 0.00 | 0.00 | 60 | 1016.6 |
| 20260507021904 | 13 | 196 | 0.0 | 4.8 | 0.00 | 0.00 | 0.00 | 60 | 1016.2 |
| 20260507021804 | 13 | 200 | 0.0 | 4.8 | 0.00 | 0.00 | 0.00 | 60 | 1016.5 |
| 20260507021704 | 13 | 192 | 0.0 | 4.8 | 0.00 | 0.00 | 0.00 | 60 | 1016.3 |
| 20260507021604 | 13 | 189 | 0.0 | 4.8 | 0.00 | 0.00 | 0.00 | 60 | 1016.4 |
| 20260507021504 | 13 | 187 | 0.0 | 1.6 | 0.00 | 0.00 | 0.00 | 60 | 1016.4 |
| 20260507021404 | 13 | 183 | 0.0 | 3.2 | 0.00 | 0.00 | 0.00 | 60 | 1016.1 |
| 20260507021304 | 13 | 191 | 0.0 | 3.2 | 0.00 | 0.00 | 0.00 | 60 | 1016.6 |
| 20260507021204 | 13 | 191 | 0.0 | 3.2 | 0.00 | 0.00 | 0.00 | 60 | 1016.1 |
| 20260507021125 | 13 | 193 | 0.0 | 3.2 | 0.00 | 0.00 | 0.00 | 60 | 1016.1 |
| 20260507021025 | 13 | 196 | 0.0 | 3.2 | 0.00 | 0.00 | 0.00 | 60 | 1016.2 |
| 20260507020904 | 13 | 197 | 0.0 | 3.2 | 0.00 | 0.00 | 0.00 | 60 | 1016.3 |
| 20260507020804 | 13 | 198 | 0.0 | 3.2 | 0.00 | 0.00 | 0.00 | 60 | 1016.4 |
| 20260507020704 | 13 | 200 | 0.0 | 3.2 | 0.00 | 0.00 | 0.00 | 60 | 1016.5 |
| 20260507020606 | 13 | 202 | 0.0 | 3.2 | 0.00 | 0.00 | 0.00 | 60 | 1016.2 |
| 20260507020505 | 13 | 203 | 0.0 | 3.2 | 0.00 | 0.00 | 0.00 | 60 | 1016.2 |
| 20260507020404 | 13 | 207 | 0.0 | 3.2 | 0.00 | 0.00 | 0.00 | 60 | 1016.3 |
| 20260507020304 | 13 | 205 | 0.0 | 3.2 | 0.00 | 0.00 | 0.00 | 60 | 1016.4 |
| 20260507020204 | 13 | 205 | 0.0 | 3.2 | 0.00 | 0.00 | 0.00 | 60 | 1016.2 |
| 20260507020103 | 13 | 206 | 0.0 | 3.2 | 0.00 | 0.00 | 0.00 | 60 | 1016.3 |
| 20260507020004 | 13 | 202 | 0.0 | 1.6 | 0.00 | 0.00 | 0.00 | 60 | 1016.1 |
| 20260507015905 | 13 | 194 | 0.0 | 3.2 | 0.00 | 0.00 | 0.00 | 60 | 1016.3 |
| 20260507015804 | 13 | 191 | 0.0 | 3.2 | 0.00 | 0.00 | 0.00 | 61 | 1016.5 |
| 20260507015704 | 13 | 191 | 0.0 | 3.2 | 0.00 | 0.00 | 0.00 | 60 | 1016.3 |
| 20260507015604 | 13 | 191 | 0.0 | 3.2 | 0.00 | 0.00 | 0.00 | 60 | 1016.3 |
| 20260507015504 | 13 | 191 | 0.0 | 3.2 | 0.00 | 0.00 | 0.00 | 60 | 1016.3 |
| 20260507015404 | 13 | 184 | 0.0 | 3.2 | 0.00 | 0.00 | 0.00 | 61 | 1016.1 |
| 20260507015306 | 13 | 179 | 0.0 | 3.2 | 0.00 | 0.00 | 0.00 | 60 | 1016.2 |
| 20260507015204 | 13 | 177 | 0.0 | 3.2 | 0.00 | 0.00 | 0.00 | 60 | 1016.3 |
| 20260507015104 | 13 | 176 | 0.0 | 3.2 | 0.00 | 0.00 | 0.00 | 60 | 1016.3 |
| 20260507015004 | 13 | 187 | 0.0 | 3.2 | 0.00 | 0.00 | 0.00 | 60 | 1016.2 |
| 20260507014904 | 13 | 187 | 0.0 | 3.2 | 0.00 | 0.00 | 0.00 | 61 | 1016.3 |
| 20260507014804 | 13 | 187 | 0.0 | 3.2 | 0.00 | 0.00 | 0.00 | 61 | 1016.2 |
| 20260507014704 | 13 | 187 | 0.0 | 3.2 | 0.00 | 0.00 | 0.00 | 61 | 1016.3 |
| 20260507014604 | 13 | 187 | 0.0 | 3.2 | 0.00 | 0.00 | 0.00 | 61 | 1016.3 |
| 20260507014504 | 13 | 187 | 0.0 | 3.2 | 0.00 | 0.00 | 0.00 | 61 | 1016.1 |
| 20260507014404 | 13 | 187 | 0.0 | 3.2 | 0.00 | 0.00 | 0.00 | 60 | 1016.1 |
| 20260507014304 | 13 | 190 | 0.0 | 3.2 | 0.00 | 0.00 | 0.00 | 61 | 1016.4 |
| 20260507014204 | 12 | 195 | 0.0 | 3.2 | 0.00 | 0.00 | 0.00 | 61 | 1016.5 |
| 20260507014104 | 12 | 199 | 0.0 | 3.2 | 0.00 | 0.00 | 0.00 | 61 | 1016.3 |
| 20260507014004 | 12 | 162 | 0.0 | 1.6 | 0.00 | 0.00 | 0.00 | 61 | 1016.1 |
| 20260507013925 | 12 | 162 | 0.0 | 1.6 | 0.00 | 0.00 | 0.00 | 61 | 1016.2 |
| 20260507013804 | 12 | 177 | 0.0 | 1.6 | 0.00 | 0.00 | 0.00 | 61 | 1016.2 |
| 20260507013704 | 12 | 177 | 0.0 | 1.6 | 0.00 | 0.00 | 0.00 | 61 | 1016.2 |
| 20260507013604 | 13 | 172 | 0.0 | 6.4 | 0.00 | 0.00 | 0.00 | 61 | 1016.3 |
| 20260507013525 | 13 | 172 | 0.0 | 6.4 | 0.00 | 0.00 | 0.00 | 61 | 1016.1 |
| 20260507013404 | 13 | 172 | 0.0 | 6.4 | 0.00 | 0.00 | 0.00 | 61 | 1016.2 |
| 20260507013304 | 13 | 174 | 0.0 | 6.4 | 0.00 | 0.00 | 0.00 | 61 | 1016.0 |
| 20260507013204 | 13 | 174 | 0.0 | 6.4 | 0.00 | 0.00 | 0.00 | 61 | 1016.2 |
| 20260507013104 | 13 | 174 | 0.0 | 6.4 | 0.00 | 0.00 | 0.00 | 61 | 1016.4 |
| 20260507013025 | 13 | 174 | 0.0 | 6.4 | 0.00 | 0.00 | 0.00 | 61 | 1016.1 |
| 20260507012904 | 13 | 173 | 0.0 | 6.4 | 0.00 | 0.00 | 0.00 | 60 | 1016.1 |
| 20260507012804 | 13 | 173 | 0.0 | 6.4 | 0.00 | 0.00 | 0.00 | 60 | 1016.1 |
| 20260507012704 | 13 | 173 | 0.0 | 6.4 | 0.00 | 0.00 | 0.00 | 60 | 1016.2 |
| 20260507012604 | 13 | 177 | 0.0 | 6.4 | 0.00 | 0.00 | 0.00 | 60 | 1016.0 |
| 20260507012504 | 13 | 180 | 0.0 | 3.2 | 0.00 | 0.00 | 0.00 | 60 | 1016.1 |
| 20260507012404 | 13 | 177 | 0.0 | 3.2 | 0.00 | 0.00 | 0.00 | 60 | 1016.0 |
| 20260507012325 | 13 | 174 | 0.0 | 1.6 | 0.00 | 0.00 | 0.00 | 60 | 1016.0 |
| 20260507012204 | 13 | 174 | 0.0 | 1.6 | 0.00 | 0.00 | 0.00 | 60 | 1016.1 |
| 20260507012104 | 13 | 173 | 0.0 | 3.2 | 0.00 | 0.00 | 0.00 | 60 | 1016.2 |
| 20260507012004 | 13 | 173 | 0.0 | 3.2 | 0.00 | 0.00 | 0.00 | 60 | 1016.2 |
| 20260507011904 | 13 | 173 | 0.0 | 3.2 | 0.00 | 0.00 | 0.00 | 60 | 1016.2 |
| 20260507011804 | 13 | 168 | 0.0 | 3.2 | 0.00 | 0.00 | 0.00 | 60 | 1016.3 |
| 20260507011704 | 13 | 170 | 0.0 | 3.2 | 0.00 | 0.00 | 0.00 | 60 | 1016.2 |
| 20260507011604 | 13 | 170 | 0.0 | 3.2 | 0.00 | 0.00 | 0.00 | 59 | 1016.2 |
| 20260507011504 | 13 | 177 | 0.0 | 4.8 | 0.00 | 0.00 | 0.00 | 59 | 1016.2 |
| 20260507011404 | 13 | 176 | 0.0 | 4.8 | 0.00 | 0.00 | 0.00 | 59 | 1016.1 |
| 20260507011304 | 13 | 176 | 0.0 | 4.8 | 0.00 | 0.00 | 0.00 | 59 | 1016.2 |
| 20260507011225 | 13 | 174 | 0.0 | 4.8 | 0.00 | 0.00 | 0.00 | 59 | 1016.1 |
| 20260507011104 | 13 | 170 | 1.6 | 6.4 | 0.00 | 0.00 | 0.00 | 59 | 1016.3 |
| 20260507011025 | 13 | 168 | 1.6 | 9.7 | 0.00 | 0.00 | 0.00 | 59 | 1015.9 |
| 20260507010904 | 13 | 168 | 1.6 | 9.7 | 0.00 | 0.00 | 0.00 | 59 | 1016.0 |
| 20260507010804 | 13 | 172 | 1.6 | 9.7 | 0.00 | 0.00 | 0.00 | 58 | 1016.0 |
| 20260507010704 | 13 | 173 | 1.6 | 9.7 | 0.00 | 0.00 | 0.00 | 58 | 1016.1 |
| 20260507010625 | 13 | 172 | 1.6 | 9.7 | 0.00 | 0.00 | 0.00 | 58 | 1016.2 |
| 20260507010504 | 13 | 170 | 1.6 | 9.7 | 0.00 | 0.00 | 0.00 | 58 | 1016.3 |
| 20260507010404 | 14 | 169 | 1.6 | 9.7 | 0.00 | 0.00 | 0.00 | 58 | 1016.2 |
| 20260507010304 | 14 | 171 | 1.6 | 9.7 | 0.00 | 0.00 | 0.00 | 58 | 1016.0 |
| 20260507010225 | 13 | 172 | 1.6 | 9.7 | 0.00 | 0.00 | 0.00 | 58 | 1016.1 |
| 20260507010104 | 13 | 177 | 0.0 | 9.7 | 0.00 | 0.00 | 0.00 | 58 | 1016.1 |
| 20260507010004 | 14 | 183 | 0.0 | 4.8 | 0.00 | 0.00 | 0.00 | 58 | 1016.0 |
| 20260507005925 | 14 | 183 | 0.0 | 4.8 | 0.00 | 0.00 | 0.00 | 58 | 1016.0 |
| 20260507005804 | 14 | 179 | 0.0 | 3.2 | 0.00 | 0.00 | 0.00 | 58 | 1016.3 |
| 20260507005703 | 14 | 178 | 0.0 | 3.2 | 0.00 | 0.00 | 0.00 | 58 | 1016.1 |
| 20260507005605 | 14 | 181 | 0.0 | 3.2 | 0.00 | 0.00 | 0.00 | 58 | 1016.1 |
| 20260507005504 | 14 | 179 | 0.0 | 3.2 | 0.00 | 0.00 | 0.00 | 58 | 1016.0 |
| 20260507005403 | 13 | 179 | 0.0 | 3.2 | 0.00 | 0.00 | 0.00 | 58 | 1016.0 |
| 20260507005305 | 13 | 176 | 0.0 | 3.2 | 0.00 | 0.00 | 0.00 | 58 | 1016.1 |
| 20260507005225 | 13 | 175 | 0.0 | 3.2 | 0.00 | 0.00 | 0.00 | 58 | 1016.0 |
| 20260507005104 | 13 | 170 | 0.0 | 3.2 | 0.00 | 0.00 | 0.00 | 59 | 1016.1 |
| 20260507005025 | 13 | 172 | 0.0 | 3.2 | 0.00 | 0.00 | 0.00 | 59 | 1016.1 |
| 20260507004904 | 13 | 171 | 0.0 | 3.2 | 0.00 | 0.00 | 0.00 | 58 | 1016.0 |
| 20260507004803 | 13 | 170 | 0.0 | 3.2 | 0.00 | 0.00 | 0.00 | 58 | 1016.1 |
| 20260507004724 | 13 | 170 | 0.0 | 3.2 | 0.00 | 0.00 | 0.00 | 58 | 1016.2 |
| 20260507004604 | 13 | 170 | 0.0 | 3.2 | 0.00 | 0.00 | 0.00 | 58 | 1015.9 |
| 20260507004504 | 13 | 169 | 0.0 | 3.2 | 0.00 | 0.00 | 0.00 | 58 | 1016.1 |
| 20260507004404 | 13 | 169 | 0.0 | 3.2 | 0.00 | 0.00 | 0.00 | 58 | 1016.2 |
| 20260507004304 | 13 | 169 | 0.0 | 3.2 | 0.00 | 0.00 | 0.00 | 58 | 1016.3 |
| 20260507004225 | 13 | 167 | 0.0 | 3.2 | 0.00 | 0.00 | 0.00 | 58 | 1016.2 |
| 20260507004104 | 13 | 166 | 0.0 | 4.8 | 0.00 | 0.00 | 0.00 | 58 | 1016.2 |
| 20260507004003 | 13 | 173 | 0.0 | 4.8 | 0.00 | 0.00 | 0.00 | 59 | 1015.9 |
| 20260507003903 | 13 | 173 | 0.0 | 4.8 | 0.00 | 0.00 | 0.00 | 59 | 1016.0 |
| 20260507003804 | 13 | 176 | 0.0 | 6.4 | 0.00 | 0.00 | 0.00 | 58 | 1015.9 |
| 20260507003704 | 13 | 177 | 0.0 | 6.4 | 0.00 | 0.00 | 0.00 | 58 | 1016.2 |
| 20260507003604 | 13 | 181 | 0.0 | 6.4 | 0.00 | 0.00 | 0.00 | 58 | 1016.0 |
| 20260507003504 | 13 | 184 | 0.0 | 6.4 | 0.00 | 0.00 | 0.00 | 58 | 1016.1 |
| 20260507003404 | 14 | 183 | 1.6 | 6.4 | 0.00 | 0.00 | 0.00 | 58 | 1016.2 |
| 20260507003303 | 14 | 183 | 1.6 | 6.4 | 0.00 | 0.00 | 0.00 | 58 | 1016.1 |
| 20260507003204 | 14 | 180 | 1.6 | 6.4 | 0.00 | 0.00 | 0.00 | 58 | 1016.1 |
| 20260507003104 | 14 | 182 | 1.6 | 6.4 | 0.00 | 0.00 | 0.00 | 58 | 1016.1 |
| 20260507003025 | 14 | 182 | 0.0 | 6.4 | 0.00 | 0.00 | 0.00 | 58 | 1016.0 |
| 20260507002903 | 14 | 182 | 0.0 | 6.4 | 0.00 | 0.00 | 0.00 | 58 | 1015.8 |
| 20260507002803 | 14 | 183 | 0.0 | 6.4 | 0.00 | 0.00 | 0.00 | 58 | 1016.3 |
| 20260507002704 | 14 | 182 | 0.0 | 6.4 | 0.00 | 0.00 | 0.00 | 57 | 1016.0 |
| 20260507002603 | 14 | 194 | 0.0 | 9.7 | 0.00 | 0.00 | 0.00 | 57 | 1016.1 |
| 20260507002503 | 14 | 188 | 0.0 | 9.7 | 0.00 | 0.00 | 0.00 | 57 | 1016.0 |
| 20260507002404 | 14 | 182 | 0.0 | 9.7 | 0.00 | 0.00 | 0.00 | 57 | 1016.1 |
| 20260507002306 | 14 | 177 | 1.6 | 9.7 | 0.00 | 0.00 | 0.00 | 57 | 1016.2 |
| 20260507002205 | 14 | 180 | 1.6 | 9.7 | 0.00 | 0.00 | 0.00 | 57 | 1016.0 |
| 20260507002103 | 14 | 182 | 1.6 | 9.7 | 0.00 | 0.00 | 0.00 | 57 | 1016.0 |
| 20260507002004 | 14 | 182 | 1.6 | 9.7 | 0.00 | 0.00 | 0.00 | 57 | 1016.1 |
| 20260507001904 | 14 | 182 | 1.6 | 9.7 | 0.00 | 0.00 | 0.00 | 57 | 1016.1 |
| 20260507001825 | 14 | 182 | 1.6 | 9.7 | 0.00 | 0.00 | 0.00 | 57 | 1015.8 |
| 20260507001704 | 14 | 191 | 1.6 | 12.9 | 0.00 | 0.00 | 0.00 | 57 | 1016.1 |
| 20260507001604 | 14 | 185 | 1.6 | 12.9 | 0.00 | 0.00 | 0.00 | 57 | 1016.0 |
| 20260507001525 | 14 | 185 | 1.6 | 12.9 | 0.00 | 0.00 | 0.00 | 57 | 1016.0 |
| 20260507001404 | 14 | 184 | 1.6 | 12.9 | 0.00 | 0.00 | 0.00 | 57 | 1016.2 |
| 20260507001303 | 14 | 190 | 1.6 | 12.9 | 0.00 | 0.00 | 0.00 | 56 | 1016.0 |
| 20260507001204 | 14 | 190 | 1.6 | 12.9 | 0.00 | 0.00 | 0.00 | 56 | 1016.0 |
| 20260507001103 | 14 | 190 | 1.6 | 12.9 | 0.00 | 0.00 | 0.00 | 56 | 1016.2 |
| 20260507001004 | 14 | 188 | 0.0 | 12.9 | 0.00 | 0.00 | 0.00 | 56 | 1015.9 |
| 20260507000904 | 14 | 187 | 1.6 | 12.9 | 0.00 | 0.00 | 0.00 | 56 | 1016.1 |
| 20260507000804 | 14 | 188 | 1.6 | 12.9 | 0.00 | 0.00 | 0.00 | 56 | 1015.9 |
| 20260507000704 | 14 | 175 | 0.0 | 6.4 | 0.00 | 0.00 | 0.00 | 56 | 1016.1 |
| 20260507000604 | 15 | 171 | 1.6 | 9.7 | 0.00 | 0.00 | 0.00 | 56 | 1016.2 |
| 20260507000504 | 15 | 171 | 1.6 | 9.7 | 0.00 | 0.00 | 0.00 | 56 | 1015.8 |
| 20260507000405 | 15 | 175 | 1.6 | 9.7 | 0.00 | 0.00 | 0.00 | 56 | 1015.9 |
| 20260507000325 | 15 | 176 | 0.0 | 9.7 | 0.00 | 0.00 | 0.00 | 56 | 1015.8 |
| 20260507000205 | 15 | 175 | 0.0 | 9.7 | 0.00 | 0.00 | 0.00 | 56 | 1015.9 |
| 20260507000104 | 15 | 175 | 1.6 | 9.7 | 0.00 | 0.00 | 0.00 | 56 | 1015.9 |
| 20260507000004 | 15 | 173 | 1.6 | 9.7 | 0.00 | 0.00 | 0.00 | 56 | 1016.0 |
| 20260506235904 | 15 | 173 | 1.6 | 9.7 | 0.00 | 0.00 | 0.00 | 56 | 1015.8 |
| 20260506235804 | 15 | 171 | 1.6 | 9.7 | 0.00 | 0.00 | 0.00 | 56 | 1015.9 |
| 20260506235704 | 15 | 171 | 1.6 | 9.7 | 0.00 | 0.00 | 0.00 | 56 | 1015.9 |
| 20260506235604 | 15 | 177 | 1.6 | 9.7 | 0.00 | 0.00 | 0.00 | 56 | 1016.0 |
| 20260506235525 | 15 | 177 | 1.6 | 9.7 | 0.00 | 0.00 | 0.00 | 56 | 1015.9 |
| 20260506235404 | 15 | 175 | 1.6 | 9.7 | 0.00 | 0.00 | 0.00 | 56 | 1015.9 |
| 20260506235306 | 15 | 176 | 1.6 | 9.7 | 0.00 | 0.00 | 0.00 | 56 | 1016.1 |
| 20260506235204 | 15 | 176 | 1.6 | 9.7 | 0.00 | 0.00 | 0.00 | 56 | 1015.9 |
| 20260506235124 | 15 | 176 | 1.6 | 9.7 | 0.00 | 0.00 | 0.00 | 56 | 1016.0 |
| 20260506235004 | 15 | 177 | 1.6 | 6.4 | 0.00 | 0.00 | 0.00 | 56 | 1015.9 |
| 20260506234903 | 15 | 181 | 1.6 | 6.4 | 0.00 | 0.00 | 0.00 | 56 | 1015.9 |
| 20260506234804 | 15 | 182 | 1.6 | 4.8 | 0.00 | 0.00 | 0.00 | 56 | 1016.0 |
| 20260506234703 | 15 | 183 | 1.6 | 4.8 | 0.00 | 0.00 | 0.00 | 56 | 1015.9 |
| 20260506234604 | 15 | 179 | 1.6 | 4.8 | 0.00 | 0.00 | 0.00 | 56 | 1016.1 |
| 20260506234504 | 15 | 184 | 1.6 | 4.8 | 0.00 | 0.00 | 0.00 | 56 | 1016.0 |
| 20260506234404 | 15 | 188 | 0.0 | 4.8 | 0.00 | 0.00 | 0.00 | 56 | 1015.9 |
| 20260506234303 | 15 | 190 | 0.0 | 4.8 | 0.00 | 0.00 | 0.00 | 56 | 1015.8 |
| 20260506234225 | 15 | 198 | 1.6 | 6.4 | 0.00 | 0.00 | 0.00 | 55 | 1016.0 |
| 20260506234104 | 15 | 199 | 1.6 | 6.4 | 0.00 | 0.00 | 0.00 | 55 | 1016.0 |
| 20260506234003 | 15 | 202 | 1.6 | 6.4 | 0.00 | 0.00 | 0.00 | 55 | 1016.1 |
| 20260506233904 | 15 | 200 | 1.6 | 6.4 | 0.00 | 0.00 | 0.00 | 55 | 1015.8 |
| 20260506233804 | 15 | 210 | 1.6 | 9.7 | 0.00 | 0.00 | 0.00 | 55 | 1016.0 |
| 20260506233725 | 15 | 209 | 1.6 | 9.7 | 0.00 | 0.00 | 0.00 | 55 | 1016.1 |
| 20260506233625 | 15 | 212 | 1.6 | 9.7 | 0.00 | 0.00 | 0.00 | 55 | 1016.1 |
| 20260506233504 | 15 | 209 | 1.6 | 9.7 | 0.00 | 0.00 | 0.00 | 55 | 1016.2 |
| 20260506233404 | 15 | 208 | 1.6 | 9.7 | 0.00 | 0.00 | 0.00 | 55 | 1015.9 |
| 20260506233303 | 15 | 205 | 1.6 | 9.7 | 0.00 | 0.00 | 0.00 | 55 | 1016.3 |
| 20260506233225 | 15 | 200 | 1.6 | 9.7 | 0.00 | 0.00 | 0.00 | 55 | 1015.9 |
| 20260506233104 | 15 | 199 | 1.6 | 9.7 | 0.00 | 0.00 | 0.00 | 55 | 1016.0 |
| 20260506233004 | 15 | 202 | 1.6 | 9.7 | 0.00 | 0.00 | 0.00 | 55 | 1016.0 |
| 20260506232904 | 15 | 205 | 1.6 | 9.7 | 0.00 | 0.00 | 0.00 | 55 | 1015.9 |
| 20260506232804 | 15 | 198 | 1.6 | 9.7 | 0.00 | 0.00 | 0.00 | 55 | 1016.1 |
| 20260506232704 | 15 | 198 | 1.6 | 9.7 | 0.00 | 0.00 | 0.00 | 55 | 1016.0 |
| 20260506232625 | 15 | 196 | 1.6 | 9.7 | 0.00 | 0.00 | 0.00 | 54 | 1016.0 |
| 20260506232504 | 15 | 201 | 1.6 | 9.7 | 0.00 | 0.00 | 0.00 | 54 | 1016.0 |
| 20260506232404 | 15 | 204 | 1.6 | 9.7 | 0.00 | 0.00 | 0.00 | 55 | 1016.1 |
| 20260506232306 | 15 | 206 | 1.6 | 9.7 | 0.00 | 0.00 | 0.00 | 55 | 1016.0 |
| 20260506232204 | 15 | 204 | 1.6 | 9.7 | 0.00 | 0.00 | 0.00 | 55 | 1016.0 |
| 20260506232103 | 15 | 203 | 1.6 | 9.7 | 0.00 | 0.00 | 0.00 | 55 | 1016.1 |
| 20260506232004 | 15 | 197 | 1.6 | 9.7 | 0.00 | 0.00 | 0.00 | 55 | 1015.8 |
| 20260506231903 | 15 | 193 | 1.6 | 9.7 | 0.00 | 0.00 | 0.00 | 55 | 1016.0 |
| 20260506231804 | 15 | 193 | 1.6 | 9.7 | 0.00 | 0.00 | 0.00 | 55 | 1016.1 |
| 20260506231703 | 15 | 193 | 0.0 | 9.7 | 0.00 | 0.00 | 0.00 | 55 | 1015.9 |
| 20260506231604 | 15 | 190 | 1.6 | 9.7 | 0.00 | 0.00 | 0.00 | 55 | 1016.0 |
| 20260506231504 | 15 | 188 | 1.6 | 9.7 | 0.00 | 0.00 | 0.00 | 55 | 1015.9 |
| 20260506231425 | 15 | 183 | 1.6 | 6.4 | 0.00 | 0.00 | 0.00 | 55 | 1015.8 |
| 20260506231304 | 15 | 180 | 1.6 | 6.4 | 0.00 | 0.00 | 0.00 | 54 | 1016.0 |
| 20260506231204 | 15 | 184 | 1.6 | 9.7 | 0.00 | 0.00 | 0.00 | 54 | 1015.9 |
| 20260506231104 | 15 | 187 | 1.6 | 9.7 | 0.00 | 0.00 | 0.00 | 54 | 1015.8 |
| 20260506231003 | 15 | 189 | 1.6 | 9.7 | 0.00 | 0.00 | 0.00 | 54 | 1015.9 |
| 20260506230904 | 15 | 191 | 1.6 | 9.7 | 0.00 | 0.00 | 0.00 | 55 | 1015.9 |
| 20260506230824 | 15 | 191 | 1.6 | 9.7 | 0.00 | 0.00 | 0.00 | 54 | 1016.1 |
| 20260506230704 | 15 | 191 | 1.6 | 9.7 | 0.00 | 0.00 | 0.00 | 54 | 1015.8 |
| 20260506230625 | 15 | 195 | 1.6 | 9.7 | 0.00 | 0.00 | 0.00 | 54 | 1015.9 |
| 20260506230503 | 15 | 197 | 0.0 | 9.7 | 0.00 | 0.00 | 0.00 | 54 | 1016.0 |
| 20260506230425 | 15 | 197 | 0.0 | 9.7 | 0.00 | 0.00 | 0.00 | 54 | 1015.8 |
| 20260506230304 | 15 | 201 | 0.0 | 9.7 | 0.00 | 0.00 | 0.00 | 54 | 1015.9 |
| 20260506230204 | 15 | 206 | 0.0 | 6.4 | 0.00 | 0.00 | 0.00 | 54 | 1015.9 |
| 20260506230103 | 15 | 199 | 0.0 | 6.4 | 0.00 | 0.00 | 0.00 | 54 | 1016.0 |
| 20260506230004 | 15 | 188 | 0.0 | 6.4 | 0.00 | 0.00 | 0.00 | 54 | 1015.9 |
| 20260506225903 | 15 | 180 | 0.0 | 6.4 | 0.00 | 0.00 | 0.00 | 54 | 1015.7 |
| 20260506225804 | 15 | 180 | 0.0 | 6.4 | 0.00 | 0.00 | 0.00 | 54 | 1015.9 |
| 20260506225703 | 15 | 181 | 1.6 | 6.4 | 0.00 | 0.00 | 0.00 | 54 | 1016.0 |
| 20260506225625 | 15 | 178 | 1.6 | 6.4 | 0.00 | 0.00 | 0.00 | 54 | 1015.9 |
| 20260506225503 | 15 | 179 | 1.6 | 6.4 | 0.00 | 0.00 | 0.00 | 54 | 1016.0 |
| 20260506225403 | 15 | 179 | 1.6 | 6.4 | 0.00 | 0.00 | 0.00 | 53 | 1015.9 |
| 20260506225305 | 15 | 180 | 1.6 | 6.4 | 0.00 | 0.00 | 0.00 | 53 | 1015.9 |
| 20260506225204 | 15 | 186 | 1.6 | 6.4 | 0.00 | 0.00 | 0.00 | 53 | 1015.8 |
| 20260506225104 | 15 | 187 | 1.6 | 6.4 | 0.00 | 0.00 | 0.00 | 53 | 1015.9 |
| 20260506225003 | 15 | 191 | 1.6 | 9.7 | 0.00 | 0.00 | 0.00 | 53 | 1015.9 |
| 20260506224904 | 15 | 200 | 1.6 | 9.7 | 0.00 | 0.00 | 0.00 | 53 | 1015.7 |
| 20260506224803 | 15 | 200 | 1.6 | 9.7 | 0.00 | 0.00 | 0.00 | 53 | 1015.9 |
| 20260506224703 | 15 | 197 | 1.6 | 9.7 | 0.00 | 0.00 | 0.00 | 53 | 1015.8 |
| 20260506224604 | 15 | 202 | 1.6 | 9.7 | 0.00 | 0.00 | 0.00 | 53 | 1015.8 |
| 20260506224504 | 15 | 203 | 1.6 | 9.7 | 0.00 | 0.00 | 0.00 | 53 | 1015.8 |
| 20260506224404 | 15 | 203 | 1.6 | 9.7 | 0.00 | 0.00 | 0.00 | 53 | 1015.9 |
| 20260506224303 | 15 | 199 | 1.6 | 9.7 | 0.00 | 0.00 | 0.00 | 52 | 1015.9 |
| 20260506224204 | 15 | 191 | 1.6 | 9.7 | 0.00 | 0.00 | 0.00 | 52 | 1015.8 |
| 20260506224104 | 15 | 191 | 1.6 | 9.7 | 0.00 | 0.00 | 0.00 | 52 | 1015.8 |
| 20260506224004 | 15 | 193 | 1.6 | 9.7 | 0.00 | 0.00 | 0.00 | 52 | 1015.9 |
| 20260506223925 | 15 | 185 | 1.6 | 11.3 | 0.00 | 0.00 | 0.00 | 52 | 1015.9 |
| 20260506223804 | 15 | 185 | 1.6 | 11.3 | 0.00 | 0.00 | 0.00 | 52 | 1015.9 |
| 20260506223703 | 15 | 187 | 1.6 | 11.3 | 0.00 | 0.00 | 0.00 | 52 | 1016.0 |
| 20260506223604 | 15 | 183 | 1.6 | 11.3 | 0.00 | 0.00 | 0.00 | 52 | 1015.8 |
| 20260506223504 | 15 | 177 | 1.6 | 11.3 | 0.00 | 0.00 | 0.00 | 52 | 1015.8 |
| 20260506223403 | 16 | 178 | 1.6 | 11.3 | 0.00 | 0.00 | 0.00 | 52 | 1015.9 |
| 20260506223303 | 16 | 184 | 1.6 | 11.3 | 0.00 | 0.00 | 0.00 | 52 | 1015.7 |
| 20260506223204 | 16 | 186 | 1.6 | 11.3 | 0.00 | 0.00 | 0.00 | 52 | 1016.1 |
| 20260506223104 | 16 | 186 | 1.6 | 11.3 | 0.00 | 0.00 | 0.00 | 52 | 1015.8 |
| 20260506223004 | 16 | 188 | 1.6 | 11.3 | 0.00 | 0.00 | 0.00 | 52 | 1016.0 |
| 20260506222904 | 16 | 191 | 0.0 | 9.7 | 0.00 | 0.00 | 0.00 | 52 | 1016.1 |
| 20260506222803 | 16 | 190 | 1.6 | 9.7 | 0.00 | 0.00 | 0.00 | 52 | 1015.7 |
| 20260506222703 | 16 | 194 | 0.0 | 6.4 | 0.00 | 0.00 | 0.00 | 52 | 1015.8 |
| 20260506222604 | 16 | 199 | 0.0 | 6.4 | 0.00 | 0.00 | 0.00 | 52 | 1015.9 |
| 20260506222503 | 16 | 196 | 0.0 | 6.4 | 0.00 | 0.00 | 0.00 | 52 | 1015.6 |
| 20260506222403 | 16 | 190 | 0.0 | 6.4 | 0.00 | 0.00 | 0.00 | 52 | 1015.9 |
| 20260506222306 | 16 | 179 | 0.0 | 6.4 | 0.00 | 0.00 | 0.00 | 52 | 1016.0 |
| 20260506222203 | 16 | 179 | 0.0 | 6.4 | 0.00 | 0.00 | 0.00 | 52 | 1015.8 |
| 20260506222125 | 16 | 179 | 0.0 | 6.4 | 0.00 | 0.00 | 0.00 | 52 | 1015.9 |
| 20260506222025 | 16 | 175 | 0.0 | 6.4 | 0.00 | 0.00 | 0.00 | 52 | 1015.9 |
| 20260506221924 | 16 | 174 | 0.0 | 6.4 | 0.00 | 0.00 | 0.00 | 52 | 1015.9 |
| 20260506221804 | 16 | 172 | 1.6 | 6.4 | 0.00 | 0.00 | 0.00 | 52 | 1015.9 |
| 20260506221704 | 16 | 169 | 1.6 | 6.4 | 0.00 | 0.00 | 0.00 | 52 | 1015.9 |
| 20260506221625 | 16 | 169 | 1.6 | 6.4 | 0.00 | 0.00 | 0.00 | 52 | 1015.7 |
| 20260506221504 | 16 | 167 | 0.0 | 6.4 | 0.00 | 0.00 | 0.00 | 52 | 1015.8 |
| 20260506221404 | 16 | 171 | 0.0 | 6.4 | 0.00 | 0.00 | 0.00 | 52 | 1015.9 |
| 20260506221304 | 16 | 173 | 0.0 | 6.4 | 0.00 | 0.00 | 0.00 | 52 | 1015.8 |
| 20260506221203 | 16 | 179 | 1.6 | 6.4 | 0.00 | 0.00 | 0.00 | 51 | 1015.8 |
| 20260506221125 | 16 | 178 | 1.6 | 6.4 | 0.00 | 0.00 | 0.00 | 51 | 1015.8 |
| 20260506221003 | 16 | 179 | 1.6 | 6.4 | 0.00 | 0.00 | 0.00 | 51 | 1015.9 |
| 20260506220903 | 16 | 179 | 1.6 | 6.4 | 0.00 | 0.00 | 0.00 | 51 | 1015.6 |
| 20260506220803 | 16 | 182 | 0.0 | 6.4 | 0.00 | 0.00 | 0.00 | 51 | 1015.7 |
| 20260506220703 | 16 | 181 | 0.0 | 6.4 | 0.00 | 0.00 | 0.00 | 51 | 1015.7 |
| 20260506220624 | 16 | 183 | 0.0 | 6.4 | 0.00 | 0.00 | 0.00 | 51 | 1015.9 |
| 20260506220503 | 16 | 183 | 0.0 | 6.4 | 0.00 | 0.00 | 0.00 | 51 | 1015.7 |
| 20260506220425 | 16 | 183 | 0.0 | 6.4 | 0.00 | 0.00 | 0.00 | 51 | 1015.7 |
| 20260506220304 | 16 | 185 | 0.0 | 6.4 | 0.00 | 0.00 | 0.00 | 51 | 1015.8 |
| 20260506220203 | 16 | 179 | 0.0 | 4.8 | 0.00 | 0.00 | 0.00 | 51 | 1015.7 |
| 20260506220104 | 16 | 172 | 0.0 | 9.7 | 0.00 | 0.00 | 0.00 | 51 | 1015.8 |
| 20260506220004 | 16 | 169 | 0.0 | 9.7 | 0.00 | 0.00 | 0.00 | 51 | 1015.6 |
| 20260506215904 | 16 | 168 | 0.0 | 9.7 | 0.00 | 0.00 | 0.00 | 51 | 1015.6 |
| 20260506215803 | 16 | 171 | 0.0 | 9.7 | 0.00 | 0.00 | 0.00 | 50 | 1015.7 |
| 20260506215703 | 16 | 183 | 1.6 | 9.7 | 0.00 | 0.00 | 0.00 | 50 | 1015.7 |
| 20260506215604 | 16 | 182 | 1.6 | 9.7 | 0.00 | 0.00 | 0.00 | 50 | 1015.6 |
| 20260506215503 | 16 | 183 | 1.6 | 9.7 | 0.00 | 0.00 | 0.00 | 50 | 1015.5 |
| 20260506215404 | 16 | 184 | 1.6 | 9.7 | 0.00 | 0.00 | 0.00 | 50 | 1015.6 |
| 20260506215306 | 16 | 188 | 1.6 | 9.7 | 0.00 | 0.00 | 0.00 | 49 | 1015.7 |
| 20260506215203 | 16 | 187 | 1.6 | 9.7 | 0.00 | 0.00 | 0.00 | 49 | 1015.7 |
| 20260506215104 | 17 | 193 | 1.6 | 6.4 | 0.00 | 0.00 | 0.00 | 49 | 1015.6 |
| 20260506215004 | 17 | 206 | 1.6 | 11.3 | 0.00 | 0.00 | 0.00 | 49 | 1015.6 |
| 20260506214904 | 17 | 207 | 1.6 | 11.3 | 0.00 | 0.00 | 0.00 | 49 | 1015.6 |
| 20260506214803 | 17 | 207 | 1.6 | 11.3 | 0.00 | 0.00 | 0.00 | 49 | 1015.7 |
| 20260506214704 | 17 | 204 | 1.6 | 11.3 | 0.00 | 0.00 | 0.00 | 49 | 1015.5 |
| 20260506214603 | 17 | 199 | 1.6 | 11.3 | 0.00 | 0.00 | 0.00 | 49 | 1015.8 |
| 20260506214504 | 17 | 197 | 1.6 | 11.3 | 0.00 | 0.00 | 0.00 | 49 | 1015.5 |
| 20260506214403 | 17 | 197 | 1.6 | 11.3 | 0.00 | 0.00 | 0.00 | 49 | 1015.5 |
| 20260506214303 | 17 | 202 | 1.6 | 11.3 | 0.00 | 0.00 | 0.00 | 49 | 1015.7 |
| 20260506214203 | 17 | 202 | 1.6 | 11.3 | 0.00 | 0.00 | 0.00 | 48 | 1015.7 |
| 20260506214104 | 17 | 205 | 1.6 | 11.3 | 0.00 | 0.00 | 0.00 | 48 | 1015.6 |
| 20260506214025 | 17 | 201 | 1.6 | 9.7 | 0.00 | 0.00 | 0.00 | 48 | 1015.5 |
| 20260506213904 | 17 | 201 | 1.6 | 9.7 | 0.00 | 0.00 | 0.00 | 49 | 1015.8 |
| 20260506213804 | 17 | 204 | 1.6 | 9.7 | 0.00 | 0.00 | 0.00 | 49 | 1015.8 |
| 20260506213704 | 17 | 203 | 1.6 | 9.7 | 0.00 | 0.00 | 0.00 | 49 | 1015.4 |
| 20260506213603 | 17 | 205 | 1.6 | 9.7 | 0.00 | 0.00 | 0.00 | 48 | 1015.4 |
| 20260506213504 | 17 | 209 | 1.6 | 9.7 | 0.00 | 0.00 | 0.00 | 48 | 1015.4 |
| 20260506213404 | 17 | 211 | 1.6 | 9.7 | 0.00 | 0.00 | 0.00 | 48 | 1015.6 |
| 20260506213303 | 17 | 206 | 1.6 | 9.7 | 0.00 | 0.00 | 0.00 | 48 | 1015.6 |
| 20260506213203 | 17 | 205 | 1.6 | 9.7 | 0.00 | 0.00 | 0.00 | 48 | 1015.6 |
| 20260506213104 | 17 | 203 | 1.6 | 9.7 | 0.00 | 0.00 | 0.00 | 48 | 1015.6 |
| 20260506213004 | 17 | 203 | 1.6 | 9.7 | 0.00 | 0.00 | 0.00 | 48 | 1015.5 |
| 20260506212904 | 17 | 203 | 1.6 | 9.7 | 0.00 | 0.00 | 0.00 | 48 | 1015.7 |
| 20260506212824 | 17 | 201 | 1.6 | 9.7 | 0.00 | 0.00 | 0.00 | 48 | 1015.4 |
| 20260506212703 | 17 | 203 | 1.6 | 9.7 | 0.00 | 0.00 | 0.00 | 48 | 1015.4 |
| 20260506212603 | 17 | 202 | 1.6 | 11.3 | 0.00 | 0.00 | 0.00 | 48 | 1015.5 |
| 20260506212504 | 17 | 201 | 1.6 | 11.3 | 0.00 | 0.00 | 0.00 | 48 | 1015.4 |
| 20260506212403 | 17 | 199 | 1.6 | 11.3 | 0.00 | 0.00 | 0.00 | 48 | 1015.5 |
| 20260506212306 | 17 | 197 | 1.6 | 11.3 | 0.00 | 0.00 | 0.00 | 48 | 1015.5 |
| 20260506212204 | 17 | 195 | 1.6 | 11.3 | 0.00 | 0.00 | 0.00 | 48 | 1015.5 |
| 20260506212125 | 17 | 200 | 0.0 | 11.3 | 0.00 | 0.00 | 0.00 | 48 | 1015.4 |
| 20260506212003 | 17 | 198 | 1.6 | 11.3 | 0.00 | 0.00 | 0.00 | 48 | 1015.7 |
| 20260506211925 | 17 | 198 | 1.6 | 11.3 | 0.00 | 0.00 | 0.00 | 48 | 1015.3 |
| 20260506211824 | 17 | 201 | 1.6 | 11.3 | 0.00 | 0.00 | 0.00 | 48 | 1015.4 |
| 20260506211703 | 17 | 203 | 1.6 | 11.3 | 0.00 | 0.00 | 0.00 | 48 | 1015.5 |
| 20260506211604 | 17 | 210 | 0.0 | 11.3 | 0.00 | 0.00 | 0.00 | 47 | 1015.3 |
| 20260506211503 | 17 | 206 | 0.0 | 9.7 | 0.00 | 0.00 | 0.00 | 47 | 1015.1 |
| 20260506211425 | 17 | 204 | 0.0 | 9.7 | 0.00 | 0.00 | 0.00 | 47 | 1015.1 |
| 20260506211305 | 17 | 198 | 1.6 | 9.7 | 0.00 | 0.00 | 0.00 | 47 | 1015.4 |
| 20260506211204 | 17 | 199 | 1.6 | 9.7 | 0.00 | 0.00 | 0.00 | 47 | 1015.6 |
| 20260506211103 | 17 | 202 | 1.6 | 9.7 | 0.00 | 0.00 | 0.00 | 47 | 1015.5 |
| 20260506211004 | 17 | 203 | 1.6 | 9.7 | 0.00 | 0.00 | 0.00 | 47 | 1015.3 |
| 20260506210904 | 17 | 205 | 1.6 | 9.7 | 0.00 | 0.00 | 0.00 | 47 | 1015.6 |
| 20260506210824 | 17 | 201 | 1.6 | 9.7 | 0.00 | 0.00 | 0.00 | 47 | 1015.3 |
| 20260506210704 | 17 | 198 | 1.6 | 6.4 | 0.00 | 0.00 | 0.00 | 47 | 1015.3 |
| 20260506210603 | 17 | 191 | 1.6 | 6.4 | 0.00 | 0.00 | 0.00 | 47 | 1015.3 |
| 20260506210503 | 17 | 191 | 1.6 | 6.4 | 0.00 | 0.00 | 0.00 | 47 | 1015.3 |
| 20260506210403 | 17 | 192 | 0.0 | 6.4 | 0.00 | 0.00 | 0.00 | 47 | 1015.4 |
| 20260506210304 | 17 | 202 | 0.0 | 4.8 | 0.00 | 0.00 | 0.00 | 47 | 1015.2 |
| 20260506210225 | 17 | 193 | 0.0 | 11.3 | 0.00 | 0.00 | 0.00 | 47 | 1015.3 |
| 20260506210103 | 17 | 191 | 0.0 | 11.3 | 0.00 | 0.00 | 0.00 | 47 | 1015.4 |
| 20260506210004 | 17 | 196 | 0.0 | 11.3 | 0.00 | 0.00 | 0.00 | 47 | 1015.4 |
| 20260506205903 | 17 | 186 | 1.6 | 11.3 | 0.00 | 0.00 | 0.00 | 47 | 1015.3 |
| 20260506205804 | 17 | 187 | 0.0 | 11.3 | 0.00 | 0.00 | 0.00 | 47 | 1015.2 |
| 20260506205703 | 17 | 180 | 1.6 | 11.3 | 0.00 | 0.00 | 0.00 | 47 | 1015.3 |
| 20260506205624 | 17 | 187 | 1.6 | 11.3 | 0.00 | 0.00 | 0.00 | 47 | 1015.3 |
| 20260506205503 | 18 | 189 | 1.6 | 11.3 | 0.00 | 0.00 | 0.00 | 47 | 1015.2 |
| 20260506205403 | 18 | 190 | 1.6 | 11.3 | 0.00 | 0.00 | 0.00 | 47 | 1015.3 |
| 20260506205306 | 18 | 187 | 1.6 | 11.3 | 0.00 | 0.00 | 0.00 | 46 | 1015.4 |
| 20260506205225 | 18 | 184 | 1.6 | 9.7 | 0.00 | 0.00 | 0.00 | 46 | 1015.3 |
| 20260506205125 | 18 | 185 | 1.6 | 9.7 | 0.00 | 0.00 | 0.00 | 46 | 1015.3 |
| 20260506205003 | 18 | 180 | 1.6 | 9.7 | 0.00 | 0.00 | 0.00 | 46 | 1015.4 |
| 20260506204904 | 18 | 186 | 1.6 | 9.7 | 0.00 | 0.00 | 0.00 | 46 | 1015.0 |
| 20260506204804 | 18 | 186 | 1.6 | 9.7 | 0.00 | 0.00 | 0.00 | 46 | 1015.4 |
| 20260506204725 | 17 | 192 | 1.6 | 9.7 | 0.00 | 0.00 | 0.00 | 46 | 1015.1 |
| 20260506204604 | 17 | 194 | 0.0 | 6.4 | 0.00 | 0.00 | 0.00 | 47 | 1015.1 |
| 20260506204525 | 17 | 193 | 0.0 | 6.4 | 0.00 | 0.00 | 0.00 | 47 | 1015.3 |
| 20260506204403 | 17 | 189 | 1.6 | 6.4 | 0.00 | 0.00 | 0.00 | 47 | 1015.3 |
| 20260506204303 | 18 | 190 | 1.6 | 6.4 | 0.00 | 0.00 | 0.00 | 47 | 1015.0 |
| 20260506204204 | 18 | 194 | 1.6 | 6.4 | 0.00 | 0.00 | 0.00 | 47 | 1015.1 |
| 20260506204104 | 18 | 192 | 1.6 | 6.4 | 0.00 | 0.00 | 0.00 | 47 | 1015.3 |
| 20260506204003 | 18 | 191 | 1.6 | 6.4 | 0.00 | 0.00 | 0.00 | 46 | 1015.1 |
| 20260506203903 | 18 | 191 | 1.6 | 6.4 | 0.00 | 0.00 | 0.00 | 47 | 1015.3 |
| 20260506203803 | 17 | 191 | 1.6 | 6.4 | 0.00 | 0.00 | 0.00 | 46 | 1015.3 |
| 20260506203725 | 17 | 190 | 1.6 | 6.4 | 0.00 | 0.00 | 0.00 | 46 | 1015.1 |
| 20260506203603 | 17 | 180 | 1.6 | 6.4 | 0.00 | 0.00 | 0.00 | 47 | 1015.1 |
| 20260506203504 | 17 | 180 | 1.6 | 6.4 | 0.00 | 0.00 | 0.00 | 47 | 1015.1 |
| 20260506203403 | 17 | 179 | 0.0 | 6.4 | 0.00 | 0.00 | 0.00 | 47 | 1015.0 |
| 20260506203303 | 17 | 178 | 0.0 | 6.4 | 0.00 | 0.00 | 0.00 | 47 | 1014.9 |
| 20260506203203 | 17 | 178 | 0.0 | 6.4 | 0.00 | 0.00 | 0.00 | 47 | 1014.9 |
| 20260506203125 | 17 | 174 | 0.0 | 6.4 | 0.00 | 0.00 | 0.00 | 47 | 1015.0 |
| 20260506203024 | 17 | 177 | 0.0 | 6.4 | 0.00 | 0.00 | 0.00 | 47 | 1015.0 |
| 20260506202903 | 17 | 188 | 0.0 | 6.4 | 0.00 | 0.00 | 0.00 | 47 | 1015.3 |
| 20260506202803 | 17 | 187 | 0.0 | 6.4 | 0.00 | 0.00 | 0.00 | 47 | 1014.9 |
| 20260506202725 | 17 | 187 | 0.0 | 6.4 | 0.00 | 0.00 | 0.00 | 47 | 1015.0 |
| 20260506202603 | 17 | 188 | 0.0 | 6.4 | 0.00 | 0.00 | 0.00 | 47 | 1015.1 |
| 20260506202504 | 17 | 189 | 0.0 | 6.4 | 0.00 | 0.00 | 0.00 | 47 | 1015.0 |
| 20260506202404 | 17 | 191 | 0.0 | 6.4 | 0.00 | 0.00 | 0.00 | 47 | 1014.9 |
| 20260506202306 | 17 | 191 | 0.0 | 6.4 | 0.00 | 0.00 | 0.00 | 47 | 1015.2 |
| 20260506202204 | 18 | 189 | 0.0 | 6.4 | 0.00 | 0.00 | 0.00 | 47 | 1015.0 |
| 20260506202103 | 18 | 188 | 0.0 | 6.4 | 0.00 | 0.00 | 0.00 | 47 | 1014.9 |
| 20260506202004 | 17 | 186 | 0.0 | 6.4 | 0.00 | 0.00 | 0.00 | 47 | 1015.0 |
| 20260506201903 | 17 | 174 | 0.0 | 4.8 | 0.00 | 0.00 | 0.00 | 47 | 1015.0 |
| 20260506201804 | 17 | 171 | 0.0 | 4.8 | 0.00 | 0.00 | 0.00 | 47 | 1015.1 |
| 20260506201724 | 17 | 171 | 0.0 | 4.8 | 0.00 | 0.00 | 0.00 | 47 | 1015.1 |
| 20260506201604 | 17 | 170 | 0.0 | 4.8 | 0.00 | 0.00 | 0.00 | 47 | 1015.0 |
| 20260506201503 | 17 | 172 | 0.0 | 4.8 | 0.00 | 0.00 | 0.00 | 47 | 1015.0 |
| 20260506201424 | 17 | 172 | 0.0 | 4.8 | 0.00 | 0.00 | 0.00 | 47 | 1015.0 |
| 20260506201304 | 17 | 174 | 0.0 | 4.8 | 0.00 | 0.00 | 0.00 | 47 | 1015.0 |
| 20260506201224 | 17 | 176 | 0.0 | 4.8 | 0.00 | 0.00 | 0.00 | 47 | 1015.0 |
| 20260506201104 | 17 | 171 | 0.0 | 4.8 | 0.00 | 0.00 | 0.00 | 47 | 1015.1 |
| 20260506201025 | 17 | 172 | 0.0 | 4.8 | 0.00 | 0.00 | 0.00 | 47 | 1015.0 |
| 20260506200903 | 17 | 163 | 0.0 | 1.6 | 0.00 | 0.00 | 0.00 | 47 | 1014.8 |
| 20260506200804 | 17 | 163 | 0.0 | 1.6 | 0.00 | 0.00 | 0.00 | 47 | 1015.0 |
| 20260506200703 | 17 | 164 | 0.0 | 1.6 | 0.00 | 0.00 | 0.00 | 47 | 1014.7 |
| 20260506200604 | 17 | 164 | 0.0 | 1.6 | 0.00 | 0.00 | 0.00 | 47 | 1015.0 |
| 20260506200525 | 17 | 164 | 0.0 | 1.6 | 0.00 | 0.00 | 0.00 | 47 | 1015.0 |
| 20260506200404 | 17 | 164 | 0.0 | 1.6 | 0.00 | 0.00 | 0.00 | 47 | 1015.0 |
| 20260506200303 | 17 | 168 | 0.0 | 1.6 | 0.00 | 0.00 | 0.00 | 47 | 1014.7 |
| 20260506200203 | 17 | 171 | 0.0 | 3.2 | 0.00 | 0.00 | 0.00 | 47 | 1015.0 |
| 20260506200104 | 17 | 173 | 0.0 | 3.2 | 0.00 | 0.00 | 0.00 | 47 | 1015.0 |
| 20260506200004 | 17 | 172 | 0.0 | 3.2 | 0.00 | 0.00 | 0.00 | 47 | 1014.9 |
| 20260506195903 | 17 | 175 | 0.0 | 3.2 | 0.00 | 0.00 | 0.00 | 47 | 1015.0 |
| 20260506195803 | 17 | 175 | 0.0 | 3.2 | 0.00 | 0.00 | 0.00 | 47 | 1014.8 |
| 20260506195704 | 17 | 175 | 0.0 | 3.2 | 0.00 | 0.00 | 0.00 | 47 | 1014.9 |
| 20260506195625 | 17 | 174 | 0.0 | 3.2 | 0.00 | 0.00 | 0.00 | 47 | 1015.1 |
| 20260506195503 | 17 | 171 | 0.0 | 3.2 | 0.00 | 0.00 | 0.00 | 47 | 1014.8 |
| 20260506195403 | 17 | 171 | 0.0 | 3.2 | 0.00 | 0.00 | 0.00 | 47 | 1014.9 |
| 20260506195306 | 17 | 171 | 0.0 | 3.2 | 0.00 | 0.00 | 0.00 | 46 | 1014.9 |
| 20260506195204 | 17 | 169 | 0.0 | 3.2 | 0.00 | 0.00 | 0.00 | 46 | 1015.0 |
| 20260506195103 | 17 | 163 | 0.0 | 1.6 | 0.00 | 0.00 | 0.00 | 47 | 1014.6 |
| 20260506195004 | 17 | 161 | 0.0 | 1.6 | 0.00 | 0.00 | 0.00 | 47 | 1014.8 |
| 20260506194903 | 17 | 161 | 0.0 | 1.6 | 0.00 | 0.00 | 0.00 | 47 | 1014.9 |
| 20260506194803 | 17 | 160 | 0.0 | 1.6 | 0.00 | 0.00 | 0.00 | 47 | 1014.9 |
| 20260506194703 | 17 | 160 | 0.0 | 1.6 | 0.00 | 0.00 | 0.00 | 47 | 1014.9 |
| 20260506194603 | 17 | 158 | 0.0 | 1.6 | 0.00 | 0.00 | 0.00 | 47 | 1015.0 |
| 20260506194504 | 17 | 168 | 0.0 | 3.2 | 0.00 | 0.00 | 0.00 | 47 | 1014.8 |
| 20260506194403 | 17 | 170 | 0.0 | 3.2 | 0.00 | 0.00 | 0.00 | 47 | 1014.9 |
| 20260506194303 | 17 | 171 | 0.0 | 3.2 | 0.00 | 0.00 | 0.00 | 47 | 1014.9 |
| 20260506194225 | 17 | 171 | 0.0 | 3.2 | 0.00 | 0.00 | 0.00 | 47 | 1014.8 |
| 20260506194104 | 18 | 172 | 0.0 | 3.2 | 0.00 | 0.00 | 0.00 | 46 | 1014.9 |
| 20260506194003 | 18 | 177 | 0.0 | 3.2 | 0.00 | 0.00 | 0.00 | 46 | 1014.6 |
| 20260506193904 | 18 | 177 | 0.0 | 3.2 | 0.00 | 0.00 | 0.00 | 46 | 1014.9 |
| 20260506193803 | 18 | 178 | 0.0 | 3.2 | 0.00 | 0.00 | 0.00 | 46 | 1014.8 |
| 20260506193704 | 18 | 182 | 0.0 | 3.2 | 0.00 | 0.00 | 0.00 | 46 | 1014.9 |
| 20260506193603 | 18 | 182 | 0.0 | 3.2 | 0.00 | 0.00 | 0.00 | 46 | 1014.9 |
| 20260506193504 | 18 | 183 | 0.0 | 3.2 | 0.00 | 0.00 | 0.00 | 46 | 1014.8 |
| 20260506193404 | 18 | 181 | 0.0 | 3.2 | 0.00 | 0.00 | 0.00 | 46 | 1014.8 |
| 20260506193304 | 18 | 178 | 0.0 | 3.2 | 0.00 | 0.00 | 0.00 | 46 | 1014.7 |
| 20260506193203 | 18 | 178 | 0.0 | 3.2 | 0.00 | 0.00 | 0.00 | 45 | 1014.7 |
| 20260506193104 | 18 | 180 | 0.0 | 3.2 | 0.00 | 0.00 | 0.00 | 45 | 1014.7 |
| 20260506193004 | 18 | 176 | 0.0 | 3.2 | 0.00 | 0.00 | 0.00 | 45 | 1014.9 |
| 20260506192904 | 18 | 177 | 0.0 | 3.2 | 0.00 | 0.00 | 0.00 | 45 | 1014.8 |
| 20260506192803 | 18 | 178 | 0.0 | 3.2 | 0.00 | 0.00 | 0.00 | 45 | 1014.8 |
| 20260506192704 | 18 | 175 | 0.0 | 3.2 | 0.00 | 0.00 | 0.00 | 45 | 1014.8 |
| 20260506192625 | 18 | 176 | 0.0 | 3.2 | 0.00 | 0.00 | 0.00 | 45 | 1014.8 |
| 20260506192504 | 18 | 177 | 0.0 | 3.2 | 0.00 | 0.00 | 0.00 | 45 | 1014.7 |
| 20260506192404 | 18 | 175 | 0.0 | 3.2 | 0.00 | 0.00 | 0.00 | 45 | 1014.6 |
| 20260506192305 | 18 | 177 | 0.0 | 3.2 | 0.00 | 0.00 | 0.00 | 45 | 1014.8 |
| 20260506192203 | 18 | 177 | 0.0 | 3.2 | 0.00 | 0.00 | 0.00 | 45 | 1014.7 |
| 20260506192104 | 18 | 177 | 0.0 | 3.2 | 0.00 | 0.00 | 0.00 | 44 | 1014.7 |
| 20260506192024 | 18 | 178 | 0.0 | 3.2 | 0.00 | 0.00 | 0.00 | 44 | 1014.8 |
| 20260506191904 | 18 | 178 | 0.0 | 3.2 | 0.00 | 0.00 | 0.00 | 44 | 1014.7 |
| 20260506191803 | 18 | 177 | 0.0 | 3.2 | 0.00 | 0.00 | 0.00 | 44 | 1014.9 |
| 20260506191703 | 18 | 179 | 0.0 | 3.2 | 0.00 | 0.00 | 0.00 | 44 | 1014.8 |
| 20260506191603 | 18 | 178 | 0.0 | 3.2 | 0.00 | 0.00 | 0.00 | 44 | 1014.4 |
| 20260506191503 | 18 | 178 | 0.0 | 3.2 | 0.00 | 0.00 | 0.00 | 44 | 1014.8 |
| 20260506191403 | 18 | 182 | 0.0 | 3.2 | 0.00 | 0.00 | 0.00 | 44 | 1014.9 |
| 20260506191303 | 18 | 186 | 0.0 | 3.2 | 0.00 | 0.00 | 0.00 | 44 | 1014.7 |
| 20260506191203 | 18 | 185 | 0.0 | 3.2 | 0.00 | 0.00 | 0.00 | 44 | 1014.8 |
| 20260506191103 | 18 | 185 | 0.0 | 3.2 | 0.00 | 0.00 | 0.00 | 44 | 1014.4 |
| 20260506191003 | 18 | 185 | 0.0 | 3.2 | 0.00 | 0.00 | 0.00 | 44 | 1014.6 |
| 20260506190903 | 18 | 185 | 0.0 | 3.2 | 0.00 | 0.00 | 0.00 | 44 | 1014.6 |
| 20260506190824 | 18 | 185 | 0.0 | 3.2 | 0.00 | 0.00 | 0.00 | 43 | 1014.8 |
| 20260506190703 | 18 | 170 | 0.0 | 1.6 | 0.00 | 0.00 | 0.00 | 44 | 1014.8 |
| 20260506190603 | 18 | 0 | 0.0 | 0.0 | 0.00 | 0.00 | 0.00 | 43 | 1014.4 |
| 20260506190503 | 18 | 0 | 0.0 | 0.0 | 0.00 | 0.00 | 0.00 | 43 | 1014.7 |
| 20260506190403 | 18 | 0 | 0.0 | 0.0 | 0.00 | 0.00 | 0.00 | 43 | 1014.7 |
| 20260506190303 | 19 | 0 | 0.0 | 0.0 | 0.00 | 0.00 | 0.00 | 43 | 1014.4 |
| 20260506190203 | 19 | 0 | 0.0 | 0.0 | 0.00 | 0.00 | 0.00 | 43 | 1014.7 |
| 20260506190103 | 19 | 0 | 0.0 | 0.0 | 0.00 | 0.00 | 0.00 | 43 | 1014.7 |
| 20260506190004 | 19 | 0 | 0.0 | 0.0 | 0.00 | 0.00 | 0.00 | 43 | 1014.7 |
| 20260506185904 | 19 | 0 | 0.0 | 0.0 | 0.00 | 0.00 | 0.00 | 43 | 1014.3 |
| 20260506185803 | 19 | 0 | 0.0 | 0.0 | 0.00 | 0.00 | 0.00 | 43 | 1014.7 |
| 20260506185704 | 19 | 0 | 0.0 | 0.0 | 0.00 | 0.00 | 0.00 | 42 | 1014.7 |
| 20260506185603 | 19 | 175 | 0.0 | 3.2 | 0.00 | 0.00 | 0.00 | 42 | 1014.4 |
| 20260506185504 | 19 | 189 | 0.0 | 3.2 | 0.00 | 0.00 | 0.00 | 43 | 1014.4 |
| 20260506185404 | 19 | 188 | 0.0 | 3.2 | 0.00 | 0.00 | 0.00 | 42 | 1014.6 |
| 20260506185325 | 19 | 180 | 0.0 | 3.2 | 0.00 | 0.00 | 0.00 | 42 | 1014.6 |
| 20260506185203 | 19 | 182 | 0.0 | 4.8 | 0.00 | 0.00 | 0.00 | 41 | 1014.7 |
| 20260506185124 | 19 | 182 | 0.0 | 4.8 | 0.00 | 0.00 | 0.00 | 41 | 1014.8 |
| 20260506185003 | 19 | 182 | 0.0 | 4.8 | 0.00 | 0.00 | 0.00 | 41 | 1014.7 |
| 20260506184924 | 19 | 182 | 0.0 | 4.8 | 0.00 | 0.00 | 0.00 | 41 | 1014.4 |
| 20260506184803 | 19 | 182 | 0.0 | 4.8 | 0.00 | 0.00 | 0.00 | 41 | 1014.4 |
| 20260506184724 | 19 | 182 | 0.0 | 4.8 | 0.00 | 0.00 | 0.00 | 41 | 1014.4 |
| 20260506184603 | 19 | 182 | 0.0 | 4.8 | 0.00 | 0.00 | 0.00 | 41 | 1014.3 |
| 20260506184504 | 19 | 176 | 0.0 | 4.8 | 0.00 | 0.00 | 0.00 | 41 | 1014.4 |
| 20260506184424 | 19 | 176 | 0.0 | 4.8 | 0.00 | 0.00 | 0.00 | 41 | 1014.4 |
| 20260506184304 | 19 | 180 | 0.0 | 4.8 | 0.00 | 0.00 | 0.00 | 41 | 1014.4 |
| 20260506184204 | 19 | 176 | 0.0 | 3.2 | 0.00 | 0.00 | 0.00 | 40 | 1014.6 |
| 20260506184103 | 19 | 174 | 0.0 | 3.2 | 0.00 | 0.00 | 0.00 | 40 | 1014.3 |
| 20260506184003 | 20 | 175 | 0.0 | 3.2 | 0.00 | 0.00 | 0.00 | 40 | 1014.4 |
| 20260506183903 | 20 | 175 | 0.0 | 3.2 | 0.00 | 0.00 | 0.00 | 40 | 1014.2 |
| 20260506183803 | 20 | 175 | 0.0 | 3.2 | 0.00 | 0.00 | 0.00 | 40 | 1014.3 |
| 20260506183704 | 20 | 175 | 0.0 | 3.2 | 0.00 | 0.00 | 0.00 | 40 | 1014.0 |
| 20260506183604 | 20 | 174 | 0.0 | 1.6 | 0.00 | 0.00 | 0.00 | 40 | 1014.6 |
| 20260506183503 | 20 | 175 | 0.0 | 1.6 | 0.00 | 0.00 | 0.00 | 40 | 1014.3 |
| 20260506183403 | 20 | 175 | 0.0 | 1.6 | 0.00 | 0.00 | 0.00 | 40 | 1014.3 |
| 20260506183303 | 20 | 178 | 0.0 | 1.6 | 0.00 | 0.00 | 0.00 | 40 | 1014.4 |
| 20260506183224 | 20 | 178 | 0.0 | 1.6 | 0.00 | 0.00 | 0.00 | 40 | 1014.1 |
| 20260506183103 | 20 | 162 | 0.0 | 1.6 | 0.00 | 0.00 | 0.00 | 40 | 1014.2 |
| 20260506183004 | 20 | 162 | 0.0 | 1.6 | 0.00 | 0.00 | 0.00 | 40 | 1014.0 |
| 20260506182903 | 20 | 162 | 0.0 | 1.6 | 0.00 | 0.00 | 0.00 | 40 | 1014.1 |
| 20260506182825 | 20 | 162 | 0.0 | 1.6 | 0.00 | 0.00 | 0.00 | 40 | 1014.3 |
| 20260506182724 | 20 | 162 | 0.0 | 1.6 | 0.00 | 0.00 | 0.00 | 40 | 1014.2 |
| 20260506182603 | 20 | 162 | 0.0 | 1.6 | 0.00 | 0.00 | 0.00 | 39 | 1014.3 |
| 20260506182504 | 20 | 154 | 0.0 | 1.6 | 0.00 | 0.00 | 0.00 | 39 | 1014.3 |
| 20260506182403 | 20 | 154 | 0.0 | 1.6 | 0.00 | 0.00 | 0.00 | 39 | 1014.3 |
| 20260506182306 | 20 | 154 | 0.0 | 1.6 | 0.00 | 0.00 | 0.00 | 39 | 1014.0 |
| 20260506182204 | 20 | 154 | 0.0 | 1.6 | 0.00 | 0.00 | 0.00 | 39 | 1014.2 |
| 20260506182103 | 20 | 0 | 0.0 | 0.0 | 0.00 | 0.00 | 0.00 | 39 | 1014.3 |
| 20260506182003 | 20 | 0 | 0.0 | 0.0 | 0.00 | 0.00 | 0.00 | 39 | 1014.2 |
| 20260506181903 | 20 | 0 | 0.0 | 0.0 | 0.00 | 0.00 | 0.00 | 39 | 1014.1 |
| 20260506181824 | 20 | 0 | 0.0 | 0.0 | 0.00 | 0.00 | 0.00 | 38 | 1014.1 |
| 20260506181724 | 20 | 174 | 0.0 | 3.2 | 0.00 | 0.00 | 0.00 | 39 | 1014.2 |
| 20260506181603 | 20 | 174 | 0.0 | 3.2 | 0.00 | 0.00 | 0.00 | 38 | 1014.3 |
| 20260506181504 | 20 | 174 | 0.0 | 3.2 | 0.00 | 0.00 | 0.00 | 38 | 1014.2 |
| 20260506181403 | 20 | 174 | 0.0 | 3.2 | 0.00 | 0.00 | 0.00 | 38 | 1014.4 |
| 20260506181304 | 20 | 174 | 0.0 | 3.2 | 0.00 | 0.00 | 0.00 | 38 | 1014.1 |
| 20260506181203 | 20 | 174 | 0.0 | 3.2 | 0.00 | 0.00 | 0.00 | 38 | 1014.1 |
| 20260506181104 | 20 | 174 | 0.0 | 3.2 | 0.00 | 0.00 | 0.00 | 38 | 1014.1 |
| 20260506181003 | 20 | 174 | 0.0 | 3.2 | 0.00 | 0.00 | 0.00 | 38 | 1014.2 |
| 20260506180903 | 20 | 174 | 0.0 | 3.2 | 0.00 | 0.00 | 0.00 | 38 | 1014.2 |
| 20260506180803 | 20 | 174 | 0.0 | 3.2 | 0.00 | 0.00 | 0.00 | 38 | 1014.1 |
| 20260506180705 | 20 | 192 | 0.0 | 3.2 | 0.00 | 0.00 | 0.00 | 38 | 1014.0 |
| 20260506180624 | 20 | 192 | 0.0 | 3.2 | 0.00 | 0.00 | 0.00 | 38 | 1014.0 |
| 20260506180503 | 20 | 192 | 0.0 | 3.2 | 0.00 | 0.00 | 0.00 | 38 | 1014.2 |
| 20260506180424 | 20 | 192 | 0.0 | 3.2 | 0.00 | 0.00 | 0.00 | 38 | 1014.2 |
| 20260506180304 | 20 | 189 | 0.0 | 3.2 | 0.00 | 0.00 | 0.00 | 38 | 1013.9 |
| 20260506180203 | 20 | 189 | 0.0 | 3.2 | 0.00 | 0.00 | 0.00 | 38 | 1014.0 |
| 20260506180103 | 20 | 189 | 0.0 | 3.2 | 0.00 | 0.00 | 0.00 | 37 | 1014.0 |
| 20260506180004 | 21 | 189 | 0.0 | 3.2 | 0.00 | 0.00 | 0.00 | 37 | 1014.0 |
| 20260506175903 | 21 | 189 | 0.0 | 3.2 | 0.00 | 0.00 | 0.00 | 37 | 1014.2 |
| 20260506175824 | 21 | 189 | 0.0 | 3.2 | 0.00 | 0.00 | 0.00 | 37 | 1014.2 |
| 20260506175703 | 21 | 178 | 0.0 | 1.6 | 0.00 | 0.00 | 0.00 | 37 | 1013.8 |
| 20260506175603 | 21 | 178 | 0.0 | 1.6 | 0.00 | 0.00 | 0.00 | 37 | 1013.8 |
| 20260506175503 | 21 | 178 | 0.0 | 1.6 | 0.00 | 0.00 | 0.00 | 37 | 1013.9 |
| 20260506175403 | 21 | 180 | 0.0 | 6.4 | 0.00 | 0.00 | 0.00 | 37 | 1013.8 |
| 20260506175306 | 21 | 181 | 0.0 | 6.4 | 0.00 | 0.00 | 0.00 | 36 | 1013.8 |
| 20260506175203 | 21 | 178 | 0.0 | 6.4 | 0.00 | 0.00 | 0.00 | 37 | 1013.8 |
| 20260506175104 | 21 | 178 | 0.0 | 6.4 | 0.00 | 0.00 | 0.00 | 37 | 1014.0 |
| 20260506175024 | 21 | 178 | 0.0 | 6.4 | 0.00 | 0.00 | 0.00 | 37 | 1013.7 |
| 20260506174903 | 21 | 178 | 0.0 | 6.4 | 0.00 | 0.00 | 0.00 | 36 | 1013.8 |
| 20260506174803 | 21 | 179 | 0.0 | 6.4 | 0.00 | 0.00 | 0.00 | 37 | 1013.7 |
| 20260506174725 | 21 | 179 | 0.0 | 6.4 | 0.00 | 0.00 | 0.00 | 37 | 1013.9 |
| 20260506174603 | 21 | 179 | 0.0 | 6.4 | 0.00 | 0.00 | 0.00 | 37 | 1013.7 |
| 20260506174503 | 21 | 179 | 0.0 | 6.4 | 0.00 | 0.00 | 0.00 | 36 | 1013.8 |
| 20260506174424 | 21 | 174 | 0.0 | 1.6 | 0.00 | 0.00 | 0.00 | 37 | 1013.6 |
| 20260506174303 | 21 | 174 | 0.0 | 1.6 | 0.00 | 0.00 | 0.00 | 37 | 1013.8 |
| 20260506174224 | 21 | 174 | 0.0 | 1.6 | 0.00 | 0.00 | 0.00 | 37 | 1014.0 |
| 20260506174103 | 21 | 191 | 0.0 | 1.6 | 0.00 | 0.00 | 0.00 | 38 | 1013.6 |
| 20260506174003 | 20 | 191 | 0.0 | 1.6 | 0.00 | 0.00 | 0.00 | 38 | 1013.8 |
| 20260506173903 | 20 | 191 | 0.0 | 1.6 | 0.00 | 0.00 | 0.00 | 38 | 1013.8 |
| 20260506173803 | 20 | 0 | 0.0 | 0.0 | 0.00 | 0.00 | 0.00 | 38 | 1013.9 |
| 20260506173703 | 20 | 0 | 0.0 | 0.0 | 0.00 | 0.00 | 0.00 | 38 | 1013.5 |
| 20260506173603 | 20 | 0 | 0.0 | 0.0 | 0.00 | 0.00 | 0.00 | 38 | 1013.8 |
| 20260506173524 | 20 | 0 | 0.0 | 0.0 | 0.00 | 0.00 | 0.00 | 39 | 1013.6 |
| 20260506173403 | 20 | 0 | 0.0 | 0.0 | 0.00 | 0.00 | 0.00 | 39 | 1013.6 |
| 20260506173303 | 20 | 0 | 0.0 | 0.0 | 0.00 | 0.00 | 0.00 | 39 | 1013.8 |
| 20260506173203 | 20 | 0 | 0.0 | 0.0 | 0.00 | 0.00 | 0.00 | 39 | 1013.6 |
| 20260506173103 | 21 | 0 | 0.0 | 0.0 | 0.00 | 0.00 | 0.00 | 39 | 1013.7 |
| 20260506173004 | 21 | 0 | 0.0 | 0.0 | 0.00 | 0.00 | 0.00 | 39 | 1013.6 |
| 20260506172903 | 21 | 0 | 0.0 | 0.0 | 0.00 | 0.00 | 0.00 | 39 | 1013.6 |
| 20260506172803 | 21 | 0 | 0.0 | 0.0 | 0.00 | 0.00 | 0.00 | 39 | 1013.8 |
| 20260506172703 | 21 | 0 | 0.0 | 0.0 | 0.00 | 0.00 | 0.00 | 39 | 1013.5 |
| 20260506172603 | 21 | 0 | 0.0 | 0.0 | 0.00 | 0.00 | 0.00 | 39 | 1013.5 |
| 20260506172503 | 21 | 0 | 0.0 | 0.0 | 0.00 | 0.00 | 0.00 | 39 | 1013.5 |
| 20260506172403 | 21 | 0 | 0.0 | 0.0 | 0.00 | 0.00 | 0.00 | 39 | 1013.4 |
| 20260506172306 | 21 | 0 | 0.0 | 0.0 | 0.00 | 0.00 | 0.00 | 39 | 1013.5 |
| 20260506172203 | 21 | 0 | 0.0 | 0.0 | 0.00 | 0.00 | 0.00 | 39 | 1013.7 |
| 20260506172103 | 21 | 0 | 0.0 | 0.0 | 0.00 | 0.00 | 0.00 | 38 | 1013.5 |
| 20260506172004 | 21 | 0 | 0.0 | 0.0 | 0.00 | 0.00 | 0.00 | 38 | 1013.6 |
| 20260506171903 | 21 | 0 | 0.0 | 0.0 | 0.00 | 0.00 | 0.00 | 38 | 1013.8 |
| 20260506171824 | 21 | 0 | 0.0 | 0.0 | 0.00 | 0.00 | 0.00 | 38 | 1013.5 |
| 20260506171703 | 21 | 0 | 0.0 | 0.0 | 0.00 | 0.00 | 0.00 | 38 | 1013.6 |
| 20260506171603 | 22 | 0 | 0.0 | 0.0 | 0.00 | 0.00 | 0.00 | 37 | 1013.5 |
| 20260506171524 | 22 | 0 | 0.0 | 0.0 | 0.00 | 0.00 | 0.00 | 37 | 1013.5 |
| 20260506171403 | 22 | 0 | 0.0 | 0.0 | 0.00 | 0.00 | 0.00 | 37 | 1013.5 |
| 20260506171303 | 22 | 0 | 0.0 | 0.0 | 0.00 | 0.00 | 0.00 | 36 | 1013.6 |
| 20260506171203 | 22 | 0 | 0.0 | 0.0 | 0.00 | 0.00 | 0.00 | 36 | 1013.5 |
| 20260506171104 | 22 | 0 | 0.0 | 0.0 | 0.00 | 0.00 | 0.00 | 35 | 1013.6 |
| 20260506171003 | 22 | 0 | 0.0 | 0.0 | 0.00 | 0.00 | 0.00 | 35 | 1013.5 |
| 20260506170903 | 22 | 0 | 0.0 | 0.0 | 0.00 | 0.00 | 0.00 | 35 | 1013.5 |
| 20260506170803 | 22 | 0 | 0.0 | 0.0 | 0.00 | 0.00 | 0.00 | 35 | 1013.4 |
| 20260506170703 | 22 | 0 | 0.0 | 0.0 | 0.00 | 0.00 | 0.00 | 35 | 1013.8 |
| 20260506170603 | 22 | 0 | 0.0 | 0.0 | 0.00 | 0.00 | 0.00 | 35 | 1013.6 |
| 20260506170503 | 22 | 0 | 0.0 | 0.0 | 0.00 | 0.00 | 0.00 | 34 | 1013.5 |
| 20260506170424 | 22 | 0 | 0.0 | 0.0 | 0.00 | 0.00 | 0.00 | 34 | 1013.6 |
| 20260506170303 | 22 | 0 | 0.0 | 0.0 | 0.00 | 0.00 | 0.00 | 34 | 1013.5 |
| 20260506170203 | 23 | 0 | 0.0 | 0.0 | 0.00 | 0.00 | 0.00 | 34 | 1013.6 |
| 20260506170103 | 23 | 0 | 0.0 | 0.0 | 0.00 | 0.00 | 0.00 | 34 | 1013.4 |
| 20260506170003 | 23 | 0 | 0.0 | 0.0 | 0.00 | 0.00 | 0.00 | 34 | 1013.4 |
| 20260506165903 | 23 | 0 | 0.0 | 0.0 | 0.00 | 0.00 | 0.00 | 33 | 1013.6 |
| 20260506165803 | 23 | 164 | 0.0 | 1.6 | 0.00 | 0.00 | 0.00 | 33 | 1013.5 |
| 20260506165703 | 23 | 164 | 0.0 | 1.6 | 0.00 | 0.00 | 0.00 | 33 | 1013.6 |
| 20260506165603 | 23 | 164 | 0.0 | 1.6 | 0.00 | 0.00 | 0.00 | 33 | 1013.6 |
| 20260506165503 | 23 | 164 | 0.0 | 1.6 | 0.00 | 0.00 | 0.00 | 33 | 1013.6 |
| 20260506165403 | 23 | 164 | 0.0 | 1.6 | 0.00 | 0.00 | 0.00 | 32 | 1013.6 |
| 20260506165305 | 23 | 164 | 0.0 | 1.6 | 0.00 | 0.00 | 0.00 | 32 | 1013.5 |
| 20260506165203 | 23 | 175 | 0.0 | 1.6 | 0.00 | 0.00 | 0.00 | 32 | 1013.4 |
| 20260506165124 | 23 | 175 | 0.0 | 1.6 | 0.00 | 0.00 | 0.00 | 32 | 1013.2 |
| 20260506165005 | 23 | 175 | 0.0 | 1.6 | 0.00 | 0.00 | 0.00 | 32 | 1013.4 |
| 20260506164903 | 23 | 175 | 0.0 | 1.6 | 0.00 | 0.00 | 0.00 | 31 | 1013.6 |
| 20260506164804 | 23 | 181 | 0.0 | 1.6 | 0.00 | 0.00 | 0.00 | 32 | 1013.4 |
| 20260506164703 | 23 | 181 | 0.0 | 1.6 | 0.00 | 0.00 | 0.00 | 32 | 1013.6 |
| 20260506164603 | 24 | 181 | 0.0 | 1.6 | 0.00 | 0.00 | 0.00 | 31 | 1013.5 |
| 20260506164524 | 24 | 181 | 0.0 | 1.6 | 0.00 | 0.00 | 0.00 | 31 | 1013.6 |
| 20260506164424 | 24 | 176 | 0.0 | 1.6 | 0.00 | 0.00 | 0.00 | 31 | 1013.4 |
| 20260506164303 | 24 | 170 | 0.0 | 1.6 | 0.00 | 0.00 | 0.00 | 31 | 1013.3 |
| 20260506164203 | 24 | 180 | 0.0 | 1.6 | 0.00 | 0.00 | 0.00 | 30 | 1013.4 |
| 20260506164103 | 24 | 180 | 0.0 | 1.6 | 0.00 | 0.00 | 0.00 | 30 | 1013.4 |
| 20260506164003 | 24 | 180 | 0.0 | 1.6 | 0.00 | 0.00 | 0.00 | 30 | 1013.3 |
| 20260506163903 | 24 | 180 | 0.0 | 1.6 | 0.00 | 0.00 | 0.00 | 30 | 1013.5 |
| 20260506163804 | 24 | 180 | 0.0 | 1.6 | 0.00 | 0.00 | 0.00 | 30 | 1013.5 |
| 20260506163703 | 24 | 180 | 0.0 | 1.6 | 0.00 | 0.00 | 0.00 | 30 | 1013.7 |
| 20260506163603 | 24 | 180 | 0.0 | 1.6 | 0.00 | 0.00 | 0.00 | 30 | 1013.5 |
| 20260506163524 | 24 | 180 | 0.0 | 1.6 | 0.00 | 0.00 | 0.00 | 31 | 1013.5 |
| 20260506163424 | 24 | 183 | 0.0 | 1.6 | 0.00 | 0.00 | 0.00 | 30 | 1013.4 |
| 20260506163324 | 25 | 192 | 0.0 | 3.2 | 0.00 | 0.00 | 0.00 | 30 | 1013.5 |
| 20260506163203 | 25 | 172 | 0.0 | 3.2 | 0.00 | 0.00 | 0.00 | 30 | 1013.4 |
| 20260506163103 | 25 | 172 | 0.0 | 3.2 | 0.00 | 0.00 | 0.00 | 30 | 1013.3 |
| 20260506163024 | 25 | 172 | 0.0 | 3.2 | 0.00 | 0.00 | 0.00 | 30 | 1013.2 |
| 20260506162924 | 25 | 168 | 0.0 | 3.2 | 0.00 | 0.00 | 0.00 | 29 | 1013.3 |
| 20260506162803 | 25 | 170 | 0.0 | 3.2 | 0.00 | 0.00 | 0.00 | 29 | 1013.4 |
| 20260506162724 | 25 | 168 | 0.0 | 3.2 | 0.00 | 0.00 | 0.00 | 29 | 1013.4 |
| 20260506162603 | 25 | 170 | 0.0 | 3.2 | 0.00 | 0.00 | 0.00 | 30 | 1013.4 |
| 20260506162504 | 25 | 170 | 0.0 | 3.2 | 0.00 | 0.00 | 0.00 | 29 | 1013.3 |
| 20260506162403 | 25 | 170 | 0.0 | 3.2 | 0.00 | 0.00 | 0.00 | 29 | 1013.4 |
| 20260506162306 | 25 | 175 | 0.0 | 3.2 | 0.00 | 0.00 | 0.00 | 29 | 1013.5 |
| 20260506162203 | 25 | 174 | 0.0 | 3.2 | 0.00 | 0.00 | 0.00 | 28 | 1013.4 |
| 20260506162124 | 25 | 173 | 0.0 | 4.8 | 0.00 | 0.00 | 0.00 | 29 | 1013.3 |
| 20260506162003 | 25 | 173 | 0.0 | 4.8 | 0.00 | 0.00 | 0.00 | 28 | 1013.5 |
| 20260506161903 | 25 | 174 | 0.0 | 4.8 | 0.00 | 0.00 | 0.00 | 28 | 1013.3 |
| 20260506161803 | 25 | 173 | 0.0 | 4.8 | 0.00 | 0.00 | 0.00 | 28 | 1013.2 |
| 20260506161724 | 25 | 175 | 0.0 | 4.8 | 0.00 | 0.00 | 0.00 | 28 | 1013.3 |
| 20260506161603 | 25 | 174 | 0.0 | 4.8 | 0.00 | 0.00 | 0.00 | 28 | 1013.7 |
| 20260506161503 | 25 | 173 | 0.0 | 4.8 | 0.00 | 0.00 | 0.00 | 28 | 1013.4 |
| 20260506161403 | 25 | 173 | 0.0 | 4.8 | 0.00 | 0.00 | 0.00 | 27 | 1013.4 |
| 20260506161303 | 25 | 169 | 0.0 | 4.8 | 0.00 | 0.00 | 0.00 | 28 | 1013.3 |
| 20260506161203 | 25 | 170 | 0.0 | 4.8 | 0.00 | 0.00 | 0.00 | 27 | 1013.5 |
| 20260506161103 | 25 | 173 | 0.0 | 1.6 | 0.00 | 0.00 | 0.00 | 27 | 1013.2 |
| 20260506161003 | 25 | 204 | 0.0 | 3.2 | 0.00 | 0.00 | 0.00 | 28 | 1013.3 |
| 20260506160903 | 25 | 204 | 0.0 | 3.2 | 0.00 | 0.00 | 0.00 | 27 | 1013.5 |
| 20260506160803 | 25 | 207 | 0.0 | 3.2 | 0.00 | 0.00 | 0.00 | 27 | 1013.4 |
| 20260506160703 | 25 | 207 | 0.0 | 3.2 | 0.00 | 0.00 | 0.00 | 27 | 1013.3 |
| 20260506160603 | 25 | 222 | 0.0 | 3.2 | 0.00 | 0.00 | 0.00 | 27 | 1013.5 |
| 20260506160525 | 25 | 222 | 0.0 | 3.2 | 0.00 | 0.00 | 0.00 | 27 | 1013.4 |
| 20260506160403 | 26 | 226 | 0.0 | 3.2 | 0.00 | 0.00 | 0.00 | 27 | 1013.4 |
| 20260506160303 | 26 | 228 | 0.0 | 3.2 | 0.00 | 0.00 | 0.00 | 27 | 1013.3 |
| 20260506160203 | 26 | 224 | 0.0 | 4.8 | 0.00 | 0.00 | 0.00 | 26 | 1013.5 |
| 20260506160103 | 26 | 217 | 0.0 | 4.8 | 0.00 | 0.00 | 0.00 | 26 | 1013.5 |
| 20260506160004 | 26 | 210 | 0.0 | 4.8 | 0.00 | 0.00 | 0.00 | 26 | 1013.4 |
| 20260506155924 | 26 | 210 | 0.0 | 4.8 | 0.00 | 0.00 | 0.00 | 26 | 1013.3 |
| 20260506155803 | 26 | 203 | 0.0 | 4.8 | 0.00 | 0.00 | 0.00 | 26 | 1013.5 |
| 20260506155703 | 26 | 195 | 0.0 | 4.8 | 0.00 | 0.00 | 0.00 | 26 | 1013.4 |
| 20260506155603 | 26 | 195 | 0.0 | 4.8 | 0.00 | 0.00 | 0.00 | 26 | 1013.5 |
| 20260506155503 | 26 | 194 | 0.0 | 4.8 | 0.00 | 0.00 | 0.00 | 26 | 1013.4 |
| 20260506155403 | 26 | 191 | 0.0 | 4.8 | 0.00 | 0.00 | 0.00 | 27 | 1013.4 |
| 20260506155306 | 26 | 191 | 0.0 | 4.8 | 0.00 | 0.00 | 0.00 | 26 | 1013.3 |
| 20260506155203 | 26 | 194 | 0.0 | 9.7 | 0.00 | 0.00 | 0.00 | 26 | 1013.3 |
| 20260506155124 | 26 | 195 | 0.0 | 9.7 | 0.00 | 0.00 | 0.00 | 26 | 1013.2 |
| 20260506155003 | 26 | 187 | 1.6 | 9.7 | 0.00 | 0.00 | 0.00 | 26 | 1013.6 |
| 20260506154903 | 26 | 184 | 1.6 | 9.7 | 0.00 | 0.00 | 0.00 | 26 | 1013.3 |
| 20260506154825 | 26 | 185 | 1.6 | 9.7 | 0.00 | 0.00 | 0.00 | 26 | 1013.3 |
| 20260506154703 | 26 | 184 | 1.6 | 9.7 | 0.00 | 0.00 | 0.00 | 26 | 1013.2 |
| 20260506154603 | 26 | 184 | 1.6 | 9.7 | 0.00 | 0.00 | 0.00 | 26 | 1013.4 |
| 20260506154503 | 26 | 184 | 1.6 | 9.7 | 0.00 | 0.00 | 0.00 | 26 | 1013.3 |
| 20260506154403 | 26 | 183 | 1.6 | 9.7 | 0.00 | 0.00 | 0.00 | 26 | 1013.4 |
| 20260506154303 | 26 | 184 | 1.6 | 9.7 | 0.00 | 0.00 | 0.00 | 25 | 1013.4 |
| 20260506154203 | 26 | 175 | 0.0 | 6.4 | 0.00 | 0.00 | 0.00 | 26 | 1013.2 |
| 20260506154103 | 26 | 171 | 0.0 | 6.4 | 0.00 | 0.00 | 0.00 | 26 | 1013.3 |
| 20260506154003 | 26 | 171 | 0.0 | 6.4 | 0.00 | 0.00 | 0.00 | 26 | 1013.3 |
| 20260506153903 | 26 | 177 | 0.0 | 4.8 | 0.00 | 0.00 | 0.00 | 25 | 1013.3 |
| 20260506153803 | 26 | 182 | 0.0 | 4.8 | 0.00 | 0.00 | 0.00 | 26 | 1013.4 |
| 20260506153703 | 26 | 184 | 0.0 | 3.2 | 0.00 | 0.00 | 0.00 | 26 | 1013.4 |
| 20260506153624 | 26 | 184 | 0.0 | 3.2 | 0.00 | 0.00 | 0.00 | 25 | 1013.2 |
| 20260506153503 | 26 | 184 | 0.0 | 3.2 | 0.00 | 0.00 | 0.00 | 25 | 1013.2 |
| 20260506153424 | 26 | 184 | 0.0 | 3.2 | 0.00 | 0.00 | 0.00 | 25 | 1013.4 |
| 20260506153324 | 26 | 184 | 0.0 | 3.2 | 0.00 | 0.00 | 0.00 | 25 | 1013.2 |
| 20260506153203 | 26 | 231 | 0.0 | 4.8 | 0.00 | 0.00 | 0.00 | 24 | 1013.3 |
| 20260506153103 | 26 | 226 | 0.0 | 6.4 | 0.00 | 0.00 | 0.00 | 25 | 1013.4 |
| 20260506153004 | 26 | 222 | 0.0 | 6.4 | 0.00 | 0.00 | 0.00 | 25 | 1013.4 |
| 20260506152903 | 26 | 212 | 0.0 | 9.7 | 0.00 | 0.00 | 0.00 | 25 | 1013.3 |
| 20260506152824 | 26 | 210 | 0.0 | 9.7 | 0.00 | 0.00 | 0.00 | 25 | 1013.2 |
| 20260506152704 | 26 | 210 | 0.0 | 9.7 | 0.00 | 0.00 | 0.00 | 25 | 1013.3 |
| 20260506152603 | 26 | 210 | 0.0 | 9.7 | 0.00 | 0.00 | 0.00 | 25 | 1013.5 |
| 20260506152503 | 26 | 206 | 0.0 | 9.7 | 0.00 | 0.00 | 0.00 | 25 | 1013.3 |
| 20260506152404 | 26 | 206 | 1.6 | 9.7 | 0.00 | 0.00 | 0.00 | 25 | 1013.4 |
| 20260506152305 | 26 | 204 | 1.6 | 9.7 | 0.00 | 0.00 | 0.00 | 25 | 1013.7 |
| 20260506152204 | 26 | 201 | 1.6 | 9.7 | 0.00 | 0.00 | 0.00 | 25 | 1013.3 |
| 20260506152103 | 26 | 196 | 1.6 | 9.7 | 0.00 | 0.00 | 0.00 | 25 | 1013.3 |
| 20260506152003 | 27 | 192 | 1.6 | 9.7 | 0.00 | 0.00 | 0.00 | 25 | 1013.5 |
| 20260506151904 | 27 | 191 | 1.6 | 9.7 | 0.00 | 0.00 | 0.00 | 25 | 1013.3 |
| 20260506151724 | 27 | 192 | 1.6 | 9.7 | 0.00 | 0.00 | 0.00 | 25 | 1013.4 |
| 20260506151603 | 27 | 192 | 1.6 | 9.7 | 0.00 | 0.00 | 0.00 | 25 | 1013.8 |
| 20260506151524 | 27 | 192 | 1.6 | 9.7 | 0.00 | 0.00 | 0.00 | 25 | 1013.5 |
| 20260506151403 | 27 | 192 | 0.0 | 9.7 | 0.00 | 0.00 | 0.00 | 24 | 1013.6 |
| 20260506151303 | 27 | 191 | 0.0 | 9.7 | 0.00 | 0.00 | 0.00 | 24 | 1013.6 |
| 20260506151203 | 27 | 197 | 1.6 | 9.7 | 0.00 | 0.00 | 0.00 | 24 | 1013.4 |
| 20260506151103 | 27 | 205 | 1.6 | 6.4 | 0.00 | 0.00 | 0.00 | 23 | 1013.5 |
| 20260506151003 | 27 | 210 | 0.0 | 6.4 | 0.00 | 0.00 | 0.00 | 23 | 1013.3 |
| 20260506150903 | 27 | 211 | 0.0 | 6.4 | 0.00 | 0.00 | 0.00 | 23 | 1013.7 |
| 20260506150803 | 27 | 209 | 0.0 | 6.4 | 0.00 | 0.00 | 0.00 | 23 | 1013.4 |
| 20260506150703 | 27 | 198 | 0.0 | 6.4 | 0.00 | 0.00 | 0.00 | 23 | 1013.5 |
| 20260506150603 | 27 | 194 | 1.6 | 6.4 | 0.00 | 0.00 | 0.00 | 23 | 1013.4 |
| 20260506150504 | 27 | 194 | 1.6 | 6.4 | 0.00 | 0.00 | 0.00 | 23 | 1013.5 |
| 20260506150424 | 27 | 194 | 1.6 | 6.4 | 0.00 | 0.00 | 0.00 | 23 | 1013.5 |
| 20260506150305 | 27 | 196 | 1.6 | 6.4 | 0.00 | 0.00 | 0.00 | 23 | 1013.4 |
| 20260506150203 | 27 | 181 | 0.0 | 6.4 | 0.00 | 0.00 | 0.00 | 22 | 1013.4 |
| 20260506150103 | 27 | 175 | 0.0 | 6.4 | 0.00 | 0.00 | 0.00 | 22 | 1013.6 |
| 20260506150004 | 27 | 176 | 0.0 | 6.4 | 0.00 | 0.00 | 0.00 | 22 | 1013.4 |
| 20260506145903 | 27 | 177 | 0.0 | 6.4 | 0.00 | 0.00 | 0.00 | 21 | 1013.6 |
| 20260506145825 | 27 | 176 | 0.0 | 6.4 | 0.00 | 0.00 | 0.00 | 22 | 1013.6 |
| 20260506145703 | 27 | 183 | 0.0 | 6.4 | 0.00 | 0.00 | 0.00 | 21 | 1013.5 |
| 20260506145603 | 27 | 186 | 0.0 | 6.4 | 0.00 | 0.00 | 0.00 | 21 | 1013.6 |
| 20260506145524 | 27 | 186 | 0.0 | 6.4 | 0.00 | 0.00 | 0.00 | 21 | 1013.6 |
| 20260506145403 | 27 | 186 | 0.0 | 6.4 | 0.00 | 0.00 | 0.00 | 21 | 1013.7 |
| 20260506145305 | 27 | 186 | 0.0 | 6.4 | 0.00 | 0.00 | 0.00 | 22 | 1013.6 |
| 20260506145203 | 27 | 192 | 0.0 | 6.4 | 0.00 | 0.00 | 0.00 | 22 | 1013.8 |
| 20260506145103 | 27 | 187 | 0.0 | 4.8 | 0.00 | 0.00 | 0.00 | 23 | 1013.4 |
| 20260506145024 | 27 | 187 | 0.0 | 4.8 | 0.00 | 0.00 | 0.00 | 22 | 1013.4 |
| 20260506144904 | 27 | 186 | 0.0 | 4.8 | 0.00 | 0.00 | 0.00 | 22 | 1013.5 |
| 20260506144824 | 27 | 188 | 0.0 | 9.7 | 0.00 | 0.00 | 0.00 | 22 | 1013.4 |
| 20260506144703 | 27 | 185 | 0.0 | 9.7 | 0.00 | 0.00 | 0.00 | 22 | 1013.6 |
| 20260506144603 | 27 | 186 | 0.0 | 9.7 | 0.00 | 0.00 | 0.00 | 21 | 1013.4 |
| 20260506144503 | 27 | 186 | 0.0 | 9.7 | 0.00 | 0.00 | 0.00 | 21 | 1013.6 |
| 20260506144403 | 27 | 181 | 0.0 | 9.7 | 0.00 | 0.00 | 0.00 | 22 | 1013.5 |
| 20260506144304 | 27 | 184 | 0.0 | 9.7 | 0.00 | 0.00 | 0.00 | 23 | 1013.4 |
| 20260506144224 | 27 | 184 | 0.0 | 9.7 | 0.00 | 0.00 | 0.00 | 23 | 1013.6 |
| 20260506144104 | 27 | 185 | 0.0 | 9.7 | 0.00 | 0.00 | 0.00 | 22 | 1013.5 |
| 20260506144003 | 27 | 187 | 0.0 | 9.7 | 0.00 | 0.00 | 0.00 | 21 | 1013.7 |
| 20260506143924 | 28 | 184 | 0.0 | 9.7 | 0.00 | 0.00 | 0.00 | 22 | 1013.7 |
| 20260506143803 | 28 | 175 | 1.6 | 6.4 | 0.00 | 0.00 | 0.00 | 22 | 1013.5 |
| 20260506143724 | 28 | 176 | 0.0 | 6.4 | 0.00 | 0.00 | 0.00 | 22 | 1013.8 |
| 20260506143604 | 28 | 175 | 1.6 | 6.4 | 0.00 | 0.00 | 0.00 | 21 | 1013.6 |
| 20260506143503 | 28 | 174 | 1.6 | 6.4 | 0.00 | 0.00 | 0.00 | 23 | 1013.7 |
| 20260506143403 | 28 | 175 | 1.6 | 6.4 | 0.00 | 0.00 | 0.00 | 22 | 1013.7 |
| 20260506143303 | 28 | 171 | 0.0 | 6.4 | 0.00 | 0.00 | 0.00 | 21 | 1013.8 |
| 20260506143203 | 28 | 171 | 0.0 | 6.4 | 0.00 | 0.00 | 0.00 | 22 | 1013.8 |
| 20260506143103 | 28 | 171 | 0.0 | 6.4 | 0.00 | 0.00 | 0.00 | 21 | 1013.7 |
| 20260506143024 | 28 | 166 | 0.0 | 6.4 | 0.00 | 0.00 | 0.00 | 23 | 1013.7 |
| 20260506142924 | 28 | 165 | 0.0 | 6.4 | 0.00 | 0.00 | 0.00 | 21 | 1013.5 |
| 20260506142803 | 28 | 176 | 0.0 | 4.8 | 0.00 | 0.00 | 0.00 | 22 | 1013.5 |
| 20260506142703 | 28 | 178 | 0.0 | 4.8 | 0.00 | 0.00 | 0.00 | 21 | 1013.8 |
| 20260506142603 | 28 | 185 | 0.0 | 3.2 | 0.00 | 0.00 | 0.00 | 20 | 1013.4 |
| 20260506142503 | 28 | 185 | 0.0 | 3.2 | 0.00 | 0.00 | 0.00 | 20 | 1013.4 |
| 20260506142403 | 28 | 181 | 0.0 | 4.8 | 0.00 | 0.00 | 0.00 | 20 | 1013.5 |
| 20260506142306 | 28 | 181 | 0.0 | 4.8 | 0.00 | 0.00 | 0.00 | 20 | 1013.5 |
| 20260506142203 | 28 | 187 | 0.0 | 4.8 | 0.00 | 0.00 | 0.00 | 20 | 1013.5 |
| 20260506142103 | 28 | 190 | 0.0 | 4.8 | 0.00 | 0.00 | 0.00 | 20 | 1013.7 |
| 20260506142003 | 28 | 191 | 0.0 | 4.8 | 0.00 | 0.00 | 0.00 | 21 | 1013.7 |
| 20260506141924 | 28 | 191 | 0.0 | 4.8 | 0.00 | 0.00 | 0.00 | 21 | 1013.7 |
| 20260506141803 | 28 | 194 | 0.0 | 4.8 | 0.00 | 0.00 | 0.00 | 21 | 1013.7 |
| 20260506141703 | 28 | 195 | 0.0 | 4.8 | 0.00 | 0.00 | 0.00 | 22 | 1013.5 |
| 20260506141624 | 28 | 196 | 0.0 | 4.8 | 0.00 | 0.00 | 0.00 | 21 | 1013.8 |
| 20260506141503 | 28 | 196 | 0.0 | 4.8 | 0.00 | 0.00 | 0.00 | 21 | 1013.4 |
| 20260506141404 | 28 | 207 | 1.6 | 6.4 | 0.00 | 0.00 | 0.00 | 22 | 1013.7 |
| 20260506141303 | 28 | 208 | 1.6 | 6.4 | 0.00 | 0.00 | 0.00 | 21 | 1013.5 |
| 20260506141203 | 28 | 207 | 0.0 | 6.4 | 0.00 | 0.00 | 0.00 | 22 | 1013.7 |
| 20260506141103 | 28 | 210 | 0.0 | 6.4 | 0.00 | 0.00 | 0.00 | 21 | 1013.7 |
| 20260506141003 | 28 | 208 | 0.0 | 6.4 | 0.00 | 0.00 | 0.00 | 21 | 1013.8 |
| 20260506140903 | 28 | 214 | 0.0 | 6.4 | 0.00 | 0.00 | 0.00 | 22 | 1013.7 |
| 20260506140803 | 28 | 214 | 0.0 | 6.4 | 0.00 | 0.00 | 0.00 | 21 | 1013.6 |
| 20260506140724 | 28 | 212 | 0.0 | 6.4 | 0.00 | 0.00 | 0.00 | 21 | 1013.6 |
| 20260506140603 | 28 | 197 | 1.6 | 6.4 | 0.00 | 0.00 | 0.00 | 21 | 1013.6 |
| 20260506140503 | 28 | 189 | 1.6 | 6.4 | 0.00 | 0.00 | 0.00 | 22 | 1013.7 |
| 20260506140403 | 28 | 182 | 1.6 | 6.4 | 0.00 | 0.00 | 0.00 | 21 | 1013.7 |
| 20260506140303 | 28 | 177 | 0.0 | 6.4 | 0.00 | 0.00 | 0.00 | 22 | 1013.7 |
| 20260506140224 | 28 | 173 | 1.6 | 6.4 | 0.00 | 0.00 | 0.00 | 22 | 1013.7 |
| 20260506140103 | 28 | 172 | 1.6 | 6.4 | 0.00 | 0.00 | 0.00 | 21 | 1013.6 |
| 20260506140004 | 28 | 169 | 1.6 | 4.8 | 0.00 | 0.00 | 0.00 | 21 | 1013.8 |
| 20260506135903 | 28 | 173 | 1.6 | 4.8 | 0.00 | 0.00 | 0.00 | 21 | 1013.7 |
| 20260506135803 | 28 | 172 | 1.6 | 4.8 | 0.00 | 0.00 | 0.00 | 21 | 1013.7 |
| 20260506135703 | 28 | 172 | 1.6 | 4.8 | 0.00 | 0.00 | 0.00 | 21 | 1013.7 |
| 20260506135624 | 28 | 174 | 1.6 | 4.8 | 0.00 | 0.00 | 0.00 | 21 | 1013.5 |
| 20260506135503 | 28 | 183 | 0.0 | 4.8 | 0.00 | 0.00 | 0.00 | 21 | 1013.5 |
| 20260506135404 | 28 | 187 | 0.0 | 4.8 | 0.00 | 0.00 | 0.00 | 21 | 1013.7 |
| 20260506135306 | 28 | 188 | 1.6 | 4.8 | 0.00 | 0.00 | 0.00 | 21 | 1013.5 |
| 20260506135203 | 28 | 193 | 1.6 | 4.8 | 0.00 | 0.00 | 0.00 | 21 | 1013.8 |
| 20260506135103 | 28 | 197 | 1.6 | 4.8 | 0.00 | 0.00 | 0.00 | 22 | 1013.7 |
| 20260506135003 | 28 | 198 | 1.6 | 4.8 | 0.00 | 0.00 | 0.00 | 22 | 1013.8 |
| 20260506134903 | 28 | 196 | 0.0 | 4.8 | 0.00 | 0.00 | 0.00 | 22 | 1013.9 |
| 20260506134824 | 28 | 197 | 0.0 | 4.8 | 0.00 | 0.00 | 0.00 | 21 | 1013.8 |
| 20260506134703 | 28 | 199 | 1.6 | 4.8 | 0.00 | 0.00 | 0.00 | 23 | 1013.8 |
| 20260506134603 | 28 | 198 | 1.6 | 6.4 | 0.00 | 0.00 | 0.00 | 22 | 1013.7 |
| 20260506134504 | 28 | 197 | 1.6 | 6.4 | 0.00 | 0.00 | 0.00 | 22 | 1013.7 |
| 20260506134403 | 28 | 196 | 1.6 | 6.4 | 0.00 | 0.00 | 0.00 | 22 | 1013.6 |
| 20260506134303 | 28 | 197 | 1.6 | 6.4 | 0.00 | 0.00 | 0.00 | 22 | 1013.8 |
| 20260506134203 | 28 | 197 | 1.6 | 6.4 | 0.00 | 0.00 | 0.00 | 21 | 1013.7 |
| 20260506134103 | 28 | 194 | 1.6 | 6.4 | 0.00 | 0.00 | 0.00 | 22 | 1013.6 |
| 20260506134003 | 28 | 192 | 1.6 | 6.4 | 0.00 | 0.00 | 0.00 | 21 | 1013.7 |
| 20260506133903 | 28 | 192 | 1.6 | 6.4 | 0.00 | 0.00 | 0.00 | 23 | 1013.8 |
| 20260506133803 | 28 | 192 | 1.6 | 6.4 | 0.00 | 0.00 | 0.00 | 22 | 1013.8 |
| 20260506133703 | 28 | 197 | 1.6 | 11.3 | 0.00 | 0.00 | 0.00 | 21 | 1013.6 |
| 20260506133603 | 28 | 197 | 1.6 | 11.3 | 0.00 | 0.00 | 0.00 | 22 | 1013.7 |
| 20260506133503 | 28 | 186 | 1.6 | 11.3 | 0.00 | 0.00 | 0.00 | 22 | 1013.6 |
| 20260506133403 | 28 | 186 | 1.6 | 11.3 | 0.00 | 0.00 | 0.00 | 22 | 1013.6 |
| 20260506133303 | 28 | 185 | 1.6 | 11.3 | 0.00 | 0.00 | 0.00 | 22 | 1013.7 |
| 20260506133203 | 28 | 185 | 1.6 | 11.3 | 0.00 | 0.00 | 0.00 | 22 | 1013.8 |
| 20260506133104 | 28 | 182 | 1.6 | 11.3 | 0.00 | 0.00 | 0.00 | 22 | 1013.9 |
| 20260506133003 | 28 | 185 | 1.6 | 11.3 | 0.00 | 0.00 | 0.00 | 22 | 1013.9 |
| 20260506132903 | 28 | 186 | 1.6 | 11.3 | 0.00 | 0.00 | 0.00 | 23 | 1013.7 |
| 20260506132803 | 28 | 186 | 1.6 | 11.3 | 0.00 | 0.00 | 0.00 | 23 | 1013.8 |
| 20260506132703 | 28 | 182 | 1.6 | 11.3 | 0.00 | 0.00 | 0.00 | 22 | 1013.9 |
| 20260506132603 | 28 | 181 | 1.6 | 11.3 | 0.00 | 0.00 | 0.00 | 23 | 1014.0 |
| 20260506132503 | 28 | 188 | 1.6 | 6.4 | 0.00 | 0.00 | 0.00 | 22 | 1013.8 |
| 20260506132403 | 28 | 187 | 1.6 | 6.4 | 0.00 | 0.00 | 0.00 | 22 | 1013.8 |
| 20260506132306 | 28 | 192 | 1.6 | 9.7 | 0.00 | 0.00 | 0.00 | 22 | 1013.7 |
| 20260506132203 | 28 | 188 | 1.6 | 11.3 | 0.00 | 0.00 | 0.00 | 22 | 1013.8 |
| 20260506132103 | 28 | 192 | 1.6 | 11.3 | 0.00 | 0.00 | 0.00 | 23 | 1013.7 |
| 20260506132003 | 28 | 196 | 1.6 | 12.9 | 0.00 | 0.00 | 0.00 | 23 | 1013.6 |
| 20260506131904 | 28 | 195 | 1.6 | 12.9 | 0.00 | 0.00 | 0.00 | 24 | 1013.8 |
| 20260506131824 | 28 | 195 | 1.6 | 12.9 | 0.00 | 0.00 | 0.00 | 22 | 1013.7 |
| 20260506131703 | 28 | 196 | 1.6 | 12.9 | 0.00 | 0.00 | 0.00 | 22 | 1013.8 |
| 20260506131603 | 28 | 196 | 1.6 | 12.9 | 0.00 | 0.00 | 0.00 | 22 | 1013.8 |
| 20260506131503 | 28 | 197 | 1.6 | 12.9 | 0.00 | 0.00 | 0.00 | 22 | 1013.7 |
| 20260506131403 | 28 | 199 | 1.6 | 12.9 | 0.00 | 0.00 | 0.00 | 22 | 1013.9 |
| 20260506131303 | 28 | 198 | 1.6 | 12.9 | 0.00 | 0.00 | 0.00 | 23 | 1013.7 |
| 20260506131203 | 28 | 202 | 1.6 | 12.9 | 0.00 | 0.00 | 0.00 | 22 | 1013.8 |
| 20260506131103 | 28 | 199 | 1.6 | 12.9 | 0.00 | 0.00 | 0.00 | 23 | 1013.8 |
| 20260506131003 | 28 | 192 | 0.0 | 9.7 | 0.00 | 0.00 | 0.00 | 22 | 1013.8 |
| 20260506130905 | 28 | 188 | 0.0 | 4.8 | 0.00 | 0.00 | 0.00 | 23 | 1013.9 |
| 20260506130824 | 28 | 188 | 0.0 | 4.8 | 0.00 | 0.00 | 0.00 | 23 | 1013.7 |
| 20260506130724 | 28 | 188 | 0.0 | 4.8 | 0.00 | 0.00 | 0.00 | 21 | 1013.8 |
| 20260506130603 | 28 | 193 | 0.0 | 9.7 | 0.00 | 0.00 | 0.00 | 22 | 1013.9 |
| 20260506130503 | 28 | 193 | 0.0 | 9.7 | 0.00 | 0.00 | 0.00 | 23 | 1013.9 |
| 20260506130403 | 28 | 194 | 0.0 | 9.7 | 0.00 | 0.00 | 0.00 | 23 | 1013.9 |
| 20260506130324 | 28 | 198 | 0.0 | 9.7 | 0.00 | 0.00 | 0.00 | 22 | 1013.9 |
| 20260506130203 | 28 | 197 | 0.0 | 9.7 | 0.00 | 0.00 | 0.00 | 23 | 1013.9 |
| 20260506130103 | 28 | 200 | 0.0 | 9.7 | 0.00 | 0.00 | 0.00 | 22 | 1014.0 |
| 20260506130004 | 28 | 193 | 1.6 | 9.7 | 0.00 | 0.00 | 0.00 | 22 | 1013.8 |
| 20260506125903 | 28 | 190 | 1.6 | 9.7 | 0.00 | 0.00 | 0.00 | 23 | 1014.0 |
| 20260506125824 | 28 | 192 | 1.6 | 12.9 | 0.00 | 0.00 | 0.00 | 22 | 1014.0 |
| 20260506125703 | 28 | 190 | 1.6 | 12.9 | 0.00 | 0.00 | 0.00 | 21 | 1013.9 |
| 20260506125603 | 28 | 190 | 1.6 | 12.9 | 0.00 | 0.00 | 0.00 | 21 | 1014.0 |
| 20260506125503 | 28 | 191 | 1.6 | 12.9 | 0.00 | 0.00 | 0.00 | 21 | 1014.0 |
| 20260506125403 | 28 | 196 | 1.6 | 12.9 | 0.00 | 0.00 | 0.00 | 21 | 1014.0 |
| 20260506125305 | 28 | 198 | 3.2 | 12.9 | 0.00 | 0.00 | 0.00 | 21 | 1014.1 |
| 20260506125224 | 28 | 198 | 3.2 | 12.9 | 0.00 | 0.00 | 0.00 | 22 | 1014.0 |
| 20260506125103 | 28 | 201 | 3.2 | 12.9 | 0.00 | 0.00 | 0.00 | 22 | 1014.1 |
| 20260506125003 | 28 | 204 | 3.2 | 12.9 | 0.00 | 0.00 | 0.00 | 21 | 1014.2 |
| 20260506124903 | 27 | 208 | 3.2 | 12.9 | 0.00 | 0.00 | 0.00 | 22 | 1014.0 |
| 20260506124803 | 27 | 212 | 1.6 | 9.7 | 0.00 | 0.00 | 0.00 | 23 | 1014.2 |
| 20260506124703 | 27 | 214 | 1.6 | 9.7 | 0.00 | 0.00 | 0.00 | 22 | 1014.2 |
| 20260506124603 | 27 | 213 | 1.6 | 9.7 | 0.00 | 0.00 | 0.00 | 22 | 1014.0 |
| 20260506124524 | 27 | 214 | 3.2 | 9.7 | 0.00 | 0.00 | 0.00 | 23 | 1014.1 |
| 20260506124403 | 28 | 210 | 1.6 | 9.7 | 0.00 | 0.00 | 0.00 | 22 | 1014.1 |
| 20260506124303 | 28 | 210 | 1.6 | 9.7 | 0.00 | 0.00 | 0.00 | 23 | 1014.2 |
| 20260506124224 | 28 | 212 | 1.6 | 9.7 | 0.00 | 0.00 | 0.00 | 23 | 1013.9 |
| 20260506124103 | 27 | 211 | 1.6 | 9.7 | 0.00 | 0.00 | 0.00 | 24 | 1014.1 |
| 20260506124004 | 27 | 210 | 1.6 | 9.7 | 0.00 | 0.00 | 0.00 | 23 | 1014.0 |
| 20260506123904 | 27 | 211 | 1.6 | 9.7 | 0.00 | 0.00 | 0.00 | 23 | 1013.9 |
| 20260506123804 | 27 | 210 | 1.6 | 9.7 | 0.00 | 0.00 | 0.00 | 23 | 1013.9 |
| 20260506123725 | 27 | 209 | 1.6 | 9.7 | 0.00 | 0.00 | 0.00 | 23 | 1014.0 |
| 20260506123604 | 28 | 210 | 1.6 | 9.7 | 0.00 | 0.00 | 0.00 | 22 | 1014.1 |
| 20260506123503 | 28 | 208 | 1.6 | 9.7 | 0.00 | 0.00 | 0.00 | 21 | 1014.2 |
| 20260506123404 | 28 | 212 | 1.6 | 9.7 | 0.00 | 0.00 | 0.00 | 22 | 1014.0 |
| 20260506123325 | 28 | 210 | 1.6 | 9.7 | 0.00 | 0.00 | 0.00 | 23 | 1014.1 |
| 20260506123225 | 28 | 206 | 1.6 | 9.7 | 0.00 | 0.00 | 0.00 | 23 | 1014.1 |
| 20260506123104 | 29 | 204 | 0.0 | 6.4 | 0.00 | 0.00 | 0.00 | 23 | 1014.2 |
| 20260506123030 | 29 | 216 | 1.6 | 6.4 | 0.00 | 0.00 | 0.00 | 22 | 1014.0 |
| 20260506122904 | 28 | 211 | 1.6 | 9.7 | 0.00 | 0.00 | 0.00 | 23 | 1014.0 |
| 20260506122803 | 28 | 208 | 1.6 | 9.7 | 0.00 | 0.00 | 0.00 | 22 | 1014.3 |
| 20260506122703 | 28 | 207 | 1.6 | 9.7 | 0.00 | 0.00 | 0.00 | 23 | 1014.3 |
| 20260506122605 | 28 | 204 | 1.6 | 9.7 | 0.00 | 0.00 | 0.00 | 22 | 1014.2 |
| 20260506122205 | 28 | 205 | 1.6 | 9.7 | 0.00 | 0.00 | 0.00 | 22 | 1014.3 |
| 20260506122103 | 28 | 204 | 1.6 | 9.7 | 0.00 | 0.00 | 0.00 | 22 | 1014.3 |
| 20260506122003 | 28 | 198 | 1.6 | 9.7 | 0.00 | 0.00 | 0.00 | 22 | 1014.1 |
| 20260506121903 | 28 | 196 | 0.0 | 6.4 | 0.00 | 0.00 | 0.00 | 21 | 1014.3 |
| 20260506121803 | 28 | 197 | 0.0 | 6.4 | 0.00 | 0.00 | 0.00 | 21 | 1014.6 |
| 20260506121703 | 28 | 197 | 0.0 | 6.4 | 0.00 | 0.00 | 0.00 | 23 | 1014.3 |
| 20260506121603 | 28 | 199 | 0.0 | 6.4 | 0.00 | 0.00 | 0.00 | 22 | 1014.3 |
| 20260506121503 | 28 | 195 | 0.0 | 6.4 | 0.00 | 0.00 | 0.00 | 23 | 1014.2 |
| 20260506121403 | 28 | 188 | 0.0 | 6.4 | 0.00 | 0.00 | 0.00 | 22 | 1014.6 |
| 20260506121324 | 28 | 178 | 0.0 | 6.4 | 0.00 | 0.00 | 0.00 | 23 | 1014.2 |
| 20260506121203 | 28 | 177 | 0.0 | 6.4 | 0.00 | 0.00 | 0.00 | 22 | 1014.3 |
| 20260506121103 | 28 | 177 | 0.0 | 6.4 | 0.00 | 0.00 | 0.00 | 23 | 1014.1 |
| 20260506121024 | 28 | 178 | 0.0 | 6.4 | 0.00 | 0.00 | 0.00 | 23 | 1014.4 |
| 20260506120924 | 28 | 176 | 0.0 | 6.4 | 0.00 | 0.00 | 0.00 | 22 | 1014.4 |
| 20260506120803 | 28 | 171 | 0.0 | 6.4 | 0.00 | 0.00 | 0.00 | 22 | 1014.6 |
| 20260506120703 | 28 | 173 | 0.0 | 6.4 | 0.00 | 0.00 | 0.00 | 22 | 1014.4 |
| 20260506120603 | 28 | 176 | 0.0 | 6.4 | 0.00 | 0.00 | 0.00 | 22 | 1014.4 |
| 20260506120503 | 28 | 176 | 0.0 | 6.4 | 0.00 | 0.00 | 0.00 | 22 | 1014.6 |
| 20260506120403 | 28 | 180 | 0.0 | 4.8 | 0.00 | 0.00 | 0.00 | 23 | 1014.6 |
| 20260506120303 | 28 | 180 | 0.0 | 4.8 | 0.00 | 0.00 | 0.00 | 22 | 1014.6 |
| 20260506120203 | 28 | 181 | 1.6 | 9.7 | 0.00 | 0.00 | 0.00 | 23 | 1014.6 |
| 20260506120103 | 28 | 178 | 1.6 | 9.7 | 0.00 | 0.00 | 0.00 | 22 | 1014.6 |
| 20260506120003 | 28 | 177 | 1.6 | 9.7 | 0.00 | 0.00 | 0.00 | 22 | 1014.4 |
| 20260506115903 | 28 | 177 | 1.6 | 9.7 | 0.00 | 0.00 | 0.00 | 22 | 1014.4 |
| 20260506115803 | 28 | 176 | 1.6 | 9.7 | 0.00 | 0.00 | 0.00 | 21 | 1014.4 |
| 20260506115703 | 28 | 174 | 1.6 | 9.7 | 0.00 | 0.00 | 0.00 | 23 | 1014.6 |
| 20260506115603 | 28 | 172 | 1.6 | 9.7 | 0.00 | 0.00 | 0.00 | 21 | 1014.3 |
| 20260506115503 | 28 | 171 | 1.6 | 9.7 | 0.00 | 0.00 | 0.00 | 22 | 1014.4 |
| 20260506115403 | 28 | 171 | 1.6 | 9.7 | 0.00 | 0.00 | 0.00 | 22 | 1014.3 |
| 20260506115306 | 28 | 170 | 1.6 | 9.7 | 0.00 | 0.00 | 0.00 | 23 | 1014.7 |
| 20260506115203 | 28 | 173 | 1.6 | 9.7 | 0.00 | 0.00 | 0.00 | 22 | 1014.6 |
| 20260506115103 | 28 | 179 | 1.6 | 9.7 | 0.00 | 0.00 | 0.00 | 21 | 1014.6 |
| 20260506115003 | 28 | 180 | 1.6 | 9.7 | 0.00 | 0.00 | 0.00 | 22 | 1014.7 |
| 20260506114903 | 28 | 181 | 1.6 | 9.7 | 0.00 | 0.00 | 0.00 | 22 | 1014.4 |
| 20260506114803 | 28 | 182 | 1.6 | 9.7 | 0.00 | 0.00 | 0.00 | 22 | 1014.4 |
| 20260506114703 | 28 | 184 | 1.6 | 9.7 | 0.00 | 0.00 | 0.00 | 22 | 1014.6 |
| 20260506114603 | 28 | 184 | 1.6 | 9.7 | 0.00 | 0.00 | 0.00 | 23 | 1014.9 |
| 20260506114503 | 28 | 188 | 1.6 | 9.7 | 0.00 | 0.00 | 0.00 | 22 | 1014.7 |
| 20260506114403 | 28 | 195 | 0.0 | 6.4 | 0.00 | 0.00 | 0.00 | 23 | 1014.7 |
| 20260506114303 | 28 | 201 | 0.0 | 6.4 | 0.00 | 0.00 | 0.00 | 23 | 1014.8 |
| 20260506114203 | 29 | 193 | 0.0 | 6.4 | 0.00 | 0.00 | 0.00 | 21 | 1014.3 |
| 20260506114103 | 29 | 172 | 0.0 | 4.8 | 0.00 | 0.00 | 0.00 | 23 | 1014.4 |
| 20260506114024 | 29 | 176 | 0.0 | 3.2 | 0.00 | 0.00 | 0.00 | 23 | 1014.6 |
| 20260506113904 | 29 | 186 | 0.0 | 3.2 | 0.00 | 0.00 | 0.00 | 21 | 1014.7 |
| 20260506113803 | 29 | 186 | 0.0 | 3.2 | 0.00 | 0.00 | 0.00 | 22 | 1014.8 |
| 20260506113724 | 28 | 186 | 0.0 | 3.2 | 0.00 | 0.00 | 0.00 | 21 | 1014.8 |
| 20260506113603 | 28 | 191 | 0.0 | 3.2 | 0.00 | 0.00 | 0.00 | 22 | 1014.8 |
| 20260506113503 | 28 | 191 | 0.0 | 3.2 | 0.00 | 0.00 | 0.00 | 23 | 1014.7 |
| 20260506113424 | 28 | 191 | 0.0 | 3.2 | 0.00 | 0.00 | 0.00 | 23 | 1014.7 |
| 20260506113303 | 28 | 194 | 0.0 | 3.2 | 0.00 | 0.00 | 0.00 | 22 | 1014.9 |
| 20260506113224 | 28 | 195 | 0.0 | 4.8 | 0.00 | 0.00 | 0.00 | 23 | 1014.8 |
| 20260506113103 | 28 | 181 | 1.6 | 11.3 | 0.00 | 0.00 | 0.00 | 22 | 1014.6 |
| 20260506113003 | 28 | 176 | 1.6 | 11.3 | 0.00 | 0.00 | 0.00 | 22 | 1014.9 |
| 20260506112903 | 28 | 173 | 1.6 | 11.3 | 0.00 | 0.00 | 0.00 | 22 | 1014.8 |
| 20260506112803 | 28 | 170 | 1.6 | 11.3 | 0.00 | 0.00 | 0.00 | 22 | 1014.9 |
| 20260506112703 | 28 | 170 | 1.6 | 11.3 | 0.00 | 0.00 | 0.00 | 22 | 1014.7 |
| 20260506112603 | 28 | 170 | 1.6 | 11.3 | 0.00 | 0.00 | 0.00 | 22 | 1015.0 |
| 20260506112503 | 28 | 170 | 1.6 | 11.3 | 0.00 | 0.00 | 0.00 | 24 | 1014.8 |
| 20260506112403 | 28 | 169 | 1.6 | 11.3 | 0.00 | 0.00 | 0.00 | 23 | 1014.9 |
| 20260506112305 | 28 | 169 | 1.6 | 11.3 | 0.00 | 0.00 | 0.00 | 23 | 1015.0 |
| 20260506112203 | 28 | 165 | 1.6 | 11.3 | 0.00 | 0.00 | 0.00 | 22 | 1014.8 |
| 20260506112103 | 28 | 168 | 0.0 | 9.7 | 0.00 | 0.00 | 0.00 | 23 | 1015.0 |
| 20260506112003 | 28 | 170 | 0.0 | 9.7 | 0.00 | 0.00 | 0.00 | 24 | 1014.9 |
| 20260506111903 | 28 | 171 | 0.0 | 9.7 | 0.00 | 0.00 | 0.00 | 24 | 1014.9 |
| 20260506111803 | 28 | 183 | 0.0 | 4.8 | 0.00 | 0.00 | 0.00 | 24 | 1014.8 |
| 20260506111703 | 28 | 194 | 1.6 | 9.7 | 0.00 | 0.00 | 0.00 | 23 | 1014.8 |
| 20260506111624 | 28 | 194 | 1.6 | 9.7 | 0.00 | 0.00 | 0.00 | 24 | 1014.4 |
| 20260506111503 | 28 | 196 | 1.6 | 9.7 | 0.00 | 0.00 | 0.00 | 24 | 1015.1 |
| 20260506111403 | 28 | 201 | 1.6 | 9.7 | 0.00 | 0.00 | 0.00 | 23 | 1014.8 |
| 20260506111303 | 28 | 202 | 1.6 | 9.7 | 0.00 | 0.00 | 0.00 | 24 | 1015.0 |
| 20260506111203 | 27 | 202 | 1.6 | 9.7 | 0.00 | 0.00 | 0.00 | 23 | 1015.0 |
| 20260506111103 | 27 | 206 | 1.6 | 9.7 | 0.00 | 0.00 | 0.00 | 23 | 1014.8 |
| 20260506111003 | 27 | 203 | 1.6 | 9.7 | 0.00 | 0.00 | 0.00 | 25 | 1014.8 |
| 20260506110903 | 27 | 205 | 1.6 | 11.3 | 0.00 | 0.00 | 0.00 | 24 | 1014.8 |
| 20260506110803 | 27 | 206 | 1.6 | 11.3 | 0.00 | 0.00 | 0.00 | 24 | 1015.1 |
| 20260506110703 | 27 | 206 | 1.6 | 11.3 | 0.00 | 0.00 | 0.00 | 24 | 1014.9 |
| 20260506110603 | 27 | 204 | 1.6 | 11.3 | 0.00 | 0.00 | 0.00 | 23 | 1014.9 |
| 20260506110503 | 27 | 203 | 1.6 | 11.3 | 0.00 | 0.00 | 0.00 | 24 | 1015.0 |
| 20260506110403 | 27 | 197 | 1.6 | 11.3 | 0.00 | 0.00 | 0.00 | 24 | 1015.0 |
| 20260506110303 | 27 | 195 | 1.6 | 11.3 | 0.00 | 0.00 | 0.00 | 24 | 1014.9 |
| 20260506110203 | 27 | 197 | 1.6 | 11.3 | 0.00 | 0.00 | 0.00 | 24 | 1015.0 |
| 20260506110103 | 27 | 203 | 1.6 | 11.3 | 0.00 | 0.00 | 0.00 | 23 | 1015.0 |
| 20260506110004 | 27 | 205 | 1.6 | 11.3 | 0.00 | 0.00 | 0.00 | 24 | 1015.0 |
| 20260506105903 | 27 | 206 | 1.6 | 9.7 | 0.00 | 0.00 | 0.00 | 24 | 1014.9 |
| 20260506105803 | 27 | 206 | 1.6 | 9.7 | 0.00 | 0.00 | 0.00 | 25 | 1015.0 |
| 20260506105703 | 27 | 205 | 3.2 | 9.7 | 0.00 | 0.00 | 0.00 | 25 | 1015.3 |
| 20260506105603 | 27 | 207 | 3.2 | 11.3 | 0.00 | 0.00 | 0.00 | 24 | 1015.0 |
| 20260506105503 | 27 | 210 | 3.2 | 11.3 | 0.00 | 0.00 | 0.00 | 25 | 1015.1 |
| 20260506105424 | 27 | 210 | 3.2 | 11.3 | 0.00 | 0.00 | 0.00 | 24 | 1015.1 |
| 20260506105305 | 27 | 217 | 3.2 | 12.9 | 0.00 | 0.00 | 0.00 | 24 | 1015.2 |
| 20260506105203 | 27 | 218 | 3.2 | 12.9 | 0.00 | 0.00 | 0.00 | 24 | 1015.1 |
| 20260506105103 | 27 | 216 | 3.2 | 12.9 | 0.00 | 0.00 | 0.00 | 25 | 1015.1 |
| 20260506105003 | 26 | 215 | 3.2 | 12.9 | 0.00 | 0.00 | 0.00 | 26 | 1015.1 |
| 20260506104903 | 26 | 211 | 3.2 | 12.9 | 0.00 | 0.00 | 0.00 | 26 | 1015.1 |
| 20260506104803 | 27 | 211 | 3.2 | 12.9 | 0.00 | 0.00 | 0.00 | 25 | 1015.2 |
| 20260506104703 | 27 | 212 | 3.2 | 12.9 | 0.00 | 0.00 | 0.00 | 25 | 1015.0 |
| 20260506104624 | 27 | 211 | 1.6 | 12.9 | 0.00 | 0.00 | 0.00 | 25 | 1015.0 |
| 20260506104503 | 27 | 206 | 1.6 | 12.9 | 0.00 | 0.00 | 0.00 | 24 | 1015.0 |
| 20260506104403 | 28 | 194 | 1.6 | 9.7 | 0.00 | 0.00 | 0.00 | 24 | 1015.1 |
| 20260506104303 | 28 | 185 | 1.6 | 9.7 | 0.00 | 0.00 | 0.00 | 25 | 1015.1 |
| 20260506104203 | 28 | 179 | 0.0 | 9.7 | 0.00 | 0.00 | 0.00 | 25 | 1015.0 |
| 20260506104124 | 28 | 180 | 0.0 | 9.7 | 0.00 | 0.00 | 0.00 | 25 | 1015.1 |
| 20260506104003 | 28 | 176 | 1.6 | 9.7 | 0.00 | 0.00 | 0.00 | 24 | 1015.2 |
| 20260506103903 | 27 | 172 | 1.6 | 9.7 | 0.00 | 0.00 | 0.00 | 26 | 1015.0 |
| 20260506103803 | 27 | 172 | 1.6 | 9.7 | 0.00 | 0.00 | 0.00 | 25 | 1015.0 |
| 20260506103703 | 27 | 172 | 0.0 | 9.7 | 0.00 | 0.00 | 0.00 | 24 | 1015.2 |
| 20260506103624 | 27 | 172 | 1.6 | 9.7 | 0.00 | 0.00 | 0.00 | 25 | 1015.3 |
| 20260506103503 | 27 | 172 | 1.6 | 9.7 | 0.00 | 0.00 | 0.00 | 25 | 1015.0 |
| 20260506103403 | 27 | 170 | 1.6 | 11.3 | 0.00 | 0.00 | 0.00 | 25 | 1015.0 |
| 20260506103303 | 27 | 171 | 1.6 | 11.3 | 0.00 | 0.00 | 0.00 | 26 | 1015.4 |
| 20260506103224 | 27 | 168 | 1.6 | 11.3 | 0.00 | 0.00 | 0.00 | 25 | 1015.3 |
| 20260506103125 | 27 | 170 | 1.6 | 11.3 | 0.00 | 0.00 | 0.00 | 26 | 1015.2 |
| 20260506103003 | 27 | 172 | 1.6 | 11.3 | 0.00 | 0.00 | 0.00 | 25 | 1014.9 |
| 20260506102903 | 27 | 173 | 1.6 | 11.3 | 0.00 | 0.00 | 0.00 | 25 | 1015.2 |
| 20260506102803 | 27 | 175 | 1.6 | 11.3 | 0.00 | 0.00 | 0.00 | 26 | 1015.2 |
| 20260506102704 | 27 | 184 | 3.2 | 11.3 | 0.00 | 0.00 | 0.00 | 25 | 1015.0 |
| 20260506102624 | 27 | 185 | 1.6 | 11.3 | 0.00 | 0.00 | 0.00 | 25 | 1015.2 |
| 20260506102503 | 27 | 187 | 1.6 | 11.3 | 0.00 | 0.00 | 0.00 | 25 | 1015.3 |
| 20260506102403 | 27 | 194 | 1.6 | 9.7 | 0.00 | 0.00 | 0.00 | 25 | 1015.2 |
| 20260506102305 | 27 | 197 | 1.6 | 9.7 | 0.00 | 0.00 | 0.00 | 26 | 1015.4 |
| 20260506102203 | 27 | 201 | 1.6 | 9.7 | 0.00 | 0.00 | 0.00 | 26 | 1015.3 |
| 20260506102103 | 27 | 203 | 1.6 | 9.7 | 0.00 | 0.00 | 0.00 | 25 | 1015.2 |
| 20260506102024 | 27 | 205 | 1.6 | 9.7 | 0.00 | 0.00 | 0.00 | 25 | 1015.0 |
| 20260506101903 | 27 | 209 | 1.6 | 9.7 | 0.00 | 0.00 | 0.00 | 27 | 1015.2 |
| 20260506101803 | 27 | 208 | 1.6 | 9.7 | 0.00 | 0.00 | 0.00 | 25 | 1015.2 |
| 20260506101703 | 27 | 199 | 0.0 | 4.8 | 0.00 | 0.00 | 0.00 | 25 | 1015.4 |
| 20260506101624 | 27 | 199 | 0.0 | 4.8 | 0.00 | 0.00 | 0.00 | 25 | 1015.4 |
| 20260506101503 | 27 | 206 | 1.6 | 6.4 | 0.00 | 0.00 | 0.00 | 26 | 1015.3 |
| 20260506101403 | 27 | 204 | 1.6 | 6.4 | 0.00 | 0.00 | 0.00 | 25 | 1015.4 |
| 20260506101303 | 27 | 204 | 1.6 | 9.7 | 0.00 | 0.00 | 0.00 | 26 | 1015.2 |
| 20260506101203 | 27 | 202 | 1.6 | 9.7 | 0.00 | 0.00 | 0.00 | 25 | 1015.2 |
| 20260506101103 | 27 | 202 | 1.6 | 9.7 | 0.00 | 0.00 | 0.00 | 27 | 1015.3 |
| 20260506101003 | 27 | 203 | 1.6 | 9.7 | 0.00 | 0.00 | 0.00 | 26 | 1015.1 |
| 20260506100903 | 27 | 200 | 1.6 | 9.7 | 0.00 | 0.00 | 0.00 | 27 | 1015.3 |
| 20260506100803 | 27 | 204 | 1.6 | 9.7 | 0.00 | 0.00 | 0.00 | 26 | 1015.1 |
| 20260506100703 | 27 | 204 | 1.6 | 9.7 | 0.00 | 0.00 | 0.00 | 26 | 1015.1 |
| 20260506100603 | 26 | 204 | 1.6 | 9.7 | 0.00 | 0.00 | 0.00 | 26 | 1015.3 |
| 20260506100503 | 26 | 201 | 1.6 | 9.7 | 0.00 | 0.00 | 0.00 | 28 | 1015.1 |
| 20260506100403 | 26 | 203 | 1.6 | 9.7 | 0.00 | 0.00 | 0.00 | 27 | 1015.3 |
| 20260506100303 | 26 | 199 | 1.6 | 9.7 | 0.00 | 0.00 | 0.00 | 28 | 1015.3 |
| 20260506100203 | 26 | 204 | 3.2 | 9.7 | 0.00 | 0.00 | 0.00 | 27 | 1015.3 |
| 20260506100103 | 26 | 211 | 3.2 | 9.7 | 0.00 | 0.00 | 0.00 | 28 | 1015.3 |
| 20260506100004 | 26 | 211 | 3.2 | 9.7 | 0.00 | 0.00 | 0.00 | 28 | 1015.3 |
| 20260506095924 | 26 | 214 | 1.6 | 9.7 | 0.00 | 0.00 | 0.00 | 27 | 1015.2 |
| 20260506095803 | 26 | 206 | 1.6 | 9.7 | 0.00 | 0.00 | 0.00 | 28 | 1015.2 |
| 20260506095703 | 26 | 208 | 1.6 | 9.7 | 0.00 | 0.00 | 0.00 | 29 | 1015.2 |
| 20260506095603 | 26 | 208 | 1.6 | 9.7 | 0.00 | 0.00 | 0.00 | 28 | 1015.4 |
| 20260506095503 | 26 | 206 | 1.6 | 9.7 | 0.00 | 0.00 | 0.00 | 28 | 1015.4 |
| 20260506095403 | 26 | 206 | 1.6 | 9.7 | 0.00 | 0.00 | 0.00 | 28 | 1015.3 |
| 20260506095305 | 26 | 210 | 1.6 | 9.7 | 0.00 | 0.00 | 0.00 | 29 | 1015.3 |
| 20260506095203 | 26 | 205 | 1.6 | 9.7 | 0.00 | 0.00 | 0.00 | 28 | 1015.2 |
| 20260506095103 | 26 | 198 | 1.6 | 9.7 | 0.00 | 0.00 | 0.00 | 28 | 1015.4 |
| 20260506095003 | 26 | 201 | 1.6 | 9.7 | 0.00 | 0.00 | 0.00 | 27 | 1015.5 |
| 20260506094924 | 26 | 208 | 1.6 | 9.7 | 0.00 | 0.00 | 0.00 | 28 | 1015.4 |
| 20260506094803 | 26 | 217 | 1.6 | 11.3 | 0.00 | 0.00 | 0.00 | 28 | 1015.4 |
| 20260506094703 | 26 | 208 | 1.6 | 11.3 | 0.00 | 0.00 | 0.00 | 28 | 1015.5 |
| 20260506094624 | 26 | 208 | 1.6 | 11.3 | 0.00 | 0.00 | 0.00 | 29 | 1015.3 |
| 20260506094504 | 26 | 206 | 1.6 | 11.3 | 0.00 | 0.00 | 0.00 | 29 | 1015.5 |
| 20260506094403 | 26 | 204 | 1.6 | 11.3 | 0.00 | 0.00 | 0.00 | 29 | 1015.4 |
| 20260506094303 | 26 | 205 | 1.6 | 11.3 | 0.00 | 0.00 | 0.00 | 30 | 1015.4 |
| 20260506094203 | 26 | 213 | 1.6 | 11.3 | 0.00 | 0.00 | 0.00 | 28 | 1015.2 |
| 20260506094124 | 26 | 208 | 1.6 | 11.3 | 0.00 | 0.00 | 0.00 | 28 | 1015.4 |
| 20260506094003 | 26 | 205 | 1.6 | 11.3 | 0.00 | 0.00 | 0.00 | 28 | 1015.4 |
| 20260506093903 | 26 | 203 | 1.6 | 11.3 | 0.00 | 0.00 | 0.00 | 28 | 1015.3 |
| 20260506093803 | 26 | 199 | 1.6 | 9.7 | 0.00 | 0.00 | 0.00 | 29 | 1015.5 |
| 20260506093703 | 26 | 202 | 1.6 | 12.9 | 0.00 | 0.00 | 0.00 | 28 | 1015.3 |
| 20260506093603 | 26 | 202 | 1.6 | 12.9 | 0.00 | 0.00 | 0.00 | 29 | 1015.4 |
| 20260506093503 | 25 | 200 | 1.6 | 12.9 | 0.00 | 0.00 | 0.00 | 29 | 1015.4 |
| 20260506093403 | 25 | 201 | 1.6 | 12.9 | 0.00 | 0.00 | 0.00 | 30 | 1015.4 |
| 20260506093303 | 26 | 200 | 1.6 | 12.9 | 0.00 | 0.00 | 0.00 | 29 | 1015.5 |
| 20260506093203 | 26 | 196 | 1.6 | 12.9 | 0.00 | 0.00 | 0.00 | 28 | 1015.5 |
| 20260506093103 | 26 | 192 | 1.6 | 12.9 | 0.00 | 0.00 | 0.00 | 29 | 1015.3 |
| 20260506093003 | 26 | 184 | 1.6 | 12.9 | 0.00 | 0.00 | 0.00 | 29 | 1015.4 |
| 20260506092903 | 26 | 177 | 1.6 | 12.9 | 0.00 | 0.00 | 0.00 | 28 | 1015.6 |
| 20260506092824 | 26 | 177 | 1.6 | 12.9 | 0.00 | 0.00 | 0.00 | 29 | 1015.6 |
| 20260506092703 | 26 | 174 | 0.0 | 6.4 | 0.00 | 0.00 | 0.00 | 29 | 1015.3 |
| 20260506092603 | 26 | 173 | 0.0 | 6.4 | 0.00 | 0.00 | 0.00 | 29 | 1015.6 |
| 20260506092503 | 26 | 182 | 1.6 | 9.7 | 0.00 | 0.00 | 0.00 | 29 | 1015.3 |
| 20260506092403 | 26 | 187 | 1.6 | 9.7 | 0.00 | 0.00 | 0.00 | 30 | 1015.4 |
| 20260506092305 | 26 | 187 | 1.6 | 9.7 | 0.00 | 0.00 | 0.00 | 30 | 1015.5 |
| 20260506092203 | 26 | 193 | 1.6 | 9.7 | 0.00 | 0.00 | 0.00 | 30 | 1015.6 |
| 20260506092103 | 26 | 194 | 1.6 | 9.7 | 0.00 | 0.00 | 0.00 | 30 | 1015.6 |
| 20260506092003 | 26 | 200 | 1.6 | 9.7 | 0.00 | 0.00 | 0.00 | 30 | 1015.5 |
| 20260506091903 | 26 | 201 | 1.6 | 9.7 | 0.00 | 0.00 | 0.00 | 30 | 1015.5 |
| 20260506091803 | 26 | 203 | 1.6 | 9.7 | 0.00 | 0.00 | 0.00 | 29 | 1015.5 |
| 20260506091703 | 26 | 201 | 1.6 | 9.7 | 0.00 | 0.00 | 0.00 | 31 | 1015.6 |
| 20260506091603 | 26 | 197 | 1.6 | 9.7 | 0.00 | 0.00 | 0.00 | 31 | 1015.7 |
| 20260506091503 | 26 | 196 | 1.6 | 9.7 | 0.00 | 0.00 | 0.00 | 30 | 1015.6 |
| 20260506091403 | 26 | 193 | 1.6 | 9.7 | 0.00 | 0.00 | 0.00 | 32 | 1015.5 |
| 20260506091303 | 26 | 186 | 1.6 | 9.7 | 0.00 | 0.00 | 0.00 | 30 | 1015.6 |
| 20260506091203 | 26 | 174 | 1.6 | 9.7 | 0.00 | 0.00 | 0.00 | 31 | 1015.4 |
| 20260506091124 | 26 | 173 | 1.6 | 9.7 | 0.00 | 0.00 | 0.00 | 31 | 1015.7 |
| 20260506091003 | 26 | 173 | 1.6 | 11.3 | 0.00 | 0.00 | 0.00 | 31 | 1015.6 |
| 20260506090903 | 25 | 170 | 1.6 | 11.3 | 0.00 | 0.00 | 0.00 | 32 | 1015.6 |
| 20260506090803 | 25 | 168 | 1.6 | 11.3 | 0.00 | 0.00 | 0.00 | 31 | 1015.5 |
| 20260506090703 | 25 | 167 | 1.6 | 11.3 | 0.00 | 0.00 | 0.00 | 31 | 1015.5 |
| 20260506090603 | 25 | 167 | 1.6 | 11.3 | 0.00 | 0.00 | 0.00 | 31 | 1015.6 |
| 20260506090503 | 25 | 166 | 1.6 | 11.3 | 0.00 | 0.00 | 0.00 | 32 | 1015.7 |
| 20260506090403 | 25 | 167 | 1.6 | 11.3 | 0.00 | 0.00 | 0.00 | 32 | 1015.6 |
| 20260506090303 | 25 | 167 | 1.6 | 11.3 | 0.00 | 0.00 | 0.00 | 32 | 1015.8 |
| 20260506090203 | 25 | 171 | 1.6 | 11.3 | 0.00 | 0.00 | 0.00 | 31 | 1015.6 |
| 20260506090103 | 25 | 171 | 1.6 | 11.3 | 0.00 | 0.00 | 0.00 | 32 | 1015.6 |
| 20260506090024 | 25 | 183 | 1.6 | 11.3 | 0.00 | 0.00 | 0.00 | 32 | 1015.5 |
| 20260506085903 | 25 | 192 | 1.6 | 11.3 | 0.00 | 0.00 | 0.00 | 31 | 1015.4 |
| 20260506085803 | 25 | 193 | 1.6 | 11.3 | 0.00 | 0.00 | 0.00 | 32 | 1015.4 |
| 20260506085703 | 25 | 186 | 1.6 | 11.3 | 0.00 | 0.00 | 0.00 | 31 | 1015.6 |
| 20260506085603 | 25 | 188 | 1.6 | 11.3 | 0.00 | 0.00 | 0.00 | 32 | 1015.7 |
| 20260506085503 | 25 | 196 | 1.6 | 11.3 | 0.00 | 0.00 | 0.00 | 32 | 1015.5 |
| 20260506085424 | 25 | 203 | 1.6 | 9.7 | 0.00 | 0.00 | 0.00 | 32 | 1015.5 |
| 20260506085305 | 25 | 201 | 1.6 | 9.7 | 0.00 | 0.00 | 0.00 | 33 | 1015.6 |
| 20260506085224 | 25 | 203 | 1.6 | 9.7 | 0.00 | 0.00 | 0.00 | 32 | 1015.5 |
| 20260506085103 | 25 | 203 | 1.6 | 9.7 | 0.00 | 0.00 | 0.00 | 32 | 1015.6 |
| 20260506085003 | 25 | 194 | 1.6 | 9.7 | 0.00 | 0.00 | 0.00 | 33 | 1015.5 |
| 20260506084903 | 25 | 194 | 1.6 | 9.7 | 0.00 | 0.00 | 0.00 | 32 | 1015.7 |
| 20260506084803 | 25 | 193 | 1.6 | 9.7 | 0.00 | 0.00 | 0.00 | 34 | 1015.6 |
| 20260506084703 | 24 | 197 | 1.6 | 9.7 | 0.00 | 0.00 | 0.00 | 33 | 1015.5 |
| 20260506084603 | 24 | 196 | 1.6 | 9.7 | 0.00 | 0.00 | 0.00 | 33 | 1015.6 |
| 20260506084503 | 25 | 194 | 1.6 | 9.7 | 0.00 | 0.00 | 0.00 | 34 | 1015.4 |
| 20260506084424 | 25 | 189 | 1.6 | 9.7 | 0.00 | 0.00 | 0.00 | 33 | 1015.4 |
| 20260506084303 | 25 | 186 | 1.6 | 9.7 | 0.00 | 0.00 | 0.00 | 32 | 1015.7 |
| 20260506084203 | 25 | 183 | 1.6 | 9.7 | 0.00 | 0.00 | 0.00 | 33 | 1015.6 |
| 20260506084103 | 25 | 183 | 1.6 | 9.7 | 0.00 | 0.00 | 0.00 | 33 | 1015.5 |
| 20260506084003 | 25 | 184 | 1.6 | 9.7 | 0.00 | 0.00 | 0.00 | 33 | 1015.5 |
| 20260506083924 | 25 | 184 | 1.6 | 9.7 | 0.00 | 0.00 | 0.00 | 32 | 1015.5 |
| 20260506083803 | 25 | 174 | 1.6 | 6.4 | 0.00 | 0.00 | 0.00 | 32 | 1015.6 |
| 20260506083703 | 25 | 176 | 1.6 | 9.7 | 0.00 | 0.00 | 0.00 | 34 | 1015.7 |
| 20260506083603 | 25 | 180 | 1.6 | 9.7 | 0.00 | 0.00 | 0.00 | 34 | 1015.5 |
| 20260506083503 | 25 | 178 | 1.6 | 11.3 | 0.00 | 0.00 | 0.00 | 35 | 1015.7 |
| 20260506083403 | 24 | 180 | 1.6 | 11.3 | 0.00 | 0.00 | 0.00 | 34 | 1015.6 |
| 20260506083324 | 24 | 181 | 1.6 | 11.3 | 0.00 | 0.00 | 0.00 | 35 | 1015.6 |
| 20260506083203 | 24 | 179 | 1.6 | 11.3 | 0.00 | 0.00 | 0.00 | 35 | 1015.4 |
| 20260506083103 | 24 | 179 | 1.6 | 11.3 | 0.00 | 0.00 | 0.00 | 35 | 1015.6 |
| 20260506083003 | 24 | 178 | 1.6 | 11.3 | 0.00 | 0.00 | 0.00 | 35 | 1015.6 |
| 20260506082903 | 23 | 179 | 1.6 | 11.3 | 0.00 | 0.00 | 0.00 | 35 | 1015.7 |
| 20260506082803 | 23 | 181 | 1.6 | 11.3 | 0.00 | 0.00 | 0.00 | 36 | 1015.7 |
| 20260506082703 | 24 | 178 | 1.6 | 11.3 | 0.00 | 0.00 | 0.00 | 36 | 1015.6 |
| 20260506082603 | 24 | 174 | 1.6 | 11.3 | 0.00 | 0.00 | 0.00 | 35 | 1015.4 |
| 20260506082503 | 24 | 174 | 1.6 | 6.4 | 0.00 | 0.00 | 0.00 | 35 | 1015.3 |
| 20260506082403 | 24 | 171 | 1.6 | 6.4 | 0.00 | 0.00 | 0.00 | 35 | 1015.8 |
| 20260506082305 | 24 | 169 | 0.0 | 6.4 | 0.00 | 0.00 | 0.00 | 35 | 1015.6 |
| 20260506082203 | 24 | 168 | 1.6 | 6.4 | 0.00 | 0.00 | 0.00 | 36 | 1015.6 |
| 20260506082103 | 24 | 169 | 1.6 | 9.7 | 0.00 | 0.00 | 0.00 | 35 | 1015.6 |
| 20260506082003 | 24 | 169 | 1.6 | 9.7 | 0.00 | 0.00 | 0.00 | 36 | 1015.5 |
| 20260506081924 | 24 | 170 | 1.6 | 9.7 | 0.00 | 0.00 | 0.00 | 35 | 1015.8 |
| 20260506081803 | 24 | 165 | 1.6 | 9.7 | 0.00 | 0.00 | 0.00 | 35 | 1015.6 |
| 20260506081724 | 24 | 164 | 1.6 | 9.7 | 0.00 | 0.00 | 0.00 | 35 | 1015.6 |
| 20260506081603 | 24 | 170 | 1.6 | 9.7 | 0.00 | 0.00 | 0.00 | 35 | 1015.7 |
| 20260506081503 | 23 | 171 | 1.6 | 9.7 | 0.00 | 0.00 | 0.00 | 37 | 1015.6 |
| 20260506081403 | 23 | 170 | 1.6 | 9.7 | 0.00 | 0.00 | 0.00 | 36 | 1015.6 |
| 20260506081303 | 23 | 169 | 1.6 | 9.7 | 0.00 | 0.00 | 0.00 | 37 | 1015.6 |
| 20260506081203 | 23 | 169 | 1.6 | 9.7 | 0.00 | 0.00 | 0.00 | 36 | 1015.8 |
| 20260506081103 | 23 | 167 | 1.6 | 9.7 | 0.00 | 0.00 | 0.00 | 36 | 1015.7 |
| 20260506081003 | 23 | 167 | 1.6 | 9.7 | 0.00 | 0.00 | 0.00 | 37 | 1015.7 |
| 20260506080903 | 23 | 170 | 1.6 | 9.7 | 0.00 | 0.00 | 0.00 | 37 | 1015.7 |
| 20260506080804 | 23 | 171 | 1.6 | 9.7 | 0.00 | 0.00 | 0.00 | 36 | 1015.7 |
| 20260506080703 | 23 | 174 | 1.6 | 9.7 | 0.00 | 0.00 | 0.00 | 37 | 1015.7 |
| 20260506080603 | 23 | 170 | 1.6 | 9.7 | 0.00 | 0.00 | 0.00 | 36 | 1015.6 |
| 20260506080503 | 23 | 173 | 1.6 | 9.7 | 0.00 | 0.00 | 0.00 | 37 | 1015.8 |
| 20260506080403 | 23 | 179 | 1.6 | 6.4 | 0.00 | 0.00 | 0.00 | 37 | 1015.7 |
| 20260506080303 | 23 | 181 | 1.6 | 6.4 | 0.00 | 0.00 | 0.00 | 37 | 1015.7 |
| 20260506080203 | 23 | 184 | 1.6 | 6.4 | 0.00 | 0.00 | 0.00 | 38 | 1015.8 |
| 20260506080124 | 23 | 189 | 1.6 | 6.4 | 0.00 | 0.00 | 0.00 | 38 | 1015.7 |
| 20260506073524 | 22 | 180 | 1.6 | 6.4 | 0.00 | 0.00 | 0.00 | 42 | 1015.7 |
| 20260506073403 | 22 | 180 | 1.6 | 9.7 | 0.00 | 0.00 | 0.00 | 41 | 1015.6 |
| 20260506073303 | 22 | 183 | 1.6 | 9.7 | 0.00 | 0.00 | 0.00 | 41 | 1015.8 |
| 20260506073203 | 22 | 187 | 1.6 | 9.7 | 0.00 | 0.00 | 0.00 | 40 | 1015.8 |
| 20260506073103 | 22 | 184 | 1.6 | 12.9 | 0.00 | 0.00 | 0.00 | 41 | 1015.7 |
| 20260506073003 | 21 | 186 | 1.6 | 12.9 | 0.00 | 0.00 | 0.00 | 41 | 1015.6 |
| 20260506072903 | 21 | 186 | 1.6 | 12.9 | 0.00 | 0.00 | 0.00 | 41 | 1015.6 |
| 20260506072824 | 21 | 184 | 1.6 | 12.9 | 0.00 | 0.00 | 0.00 | 41 | 1015.9 |
| 20260506072703 | 21 | 184 | 1.6 | 12.9 | 0.00 | 0.00 | 0.00 | 41 | 1015.8 |
| 20260506072603 | 21 | 185 | 1.6 | 12.9 | 0.00 | 0.00 | 0.00 | 41 | 1015.8 |
| 20260506072503 | 21 | 179 | 1.6 | 12.9 | 0.00 | 0.00 | 0.00 | 42 | 1015.6 |
| 20260506072403 | 21 | 181 | 1.6 | 12.9 | 0.00 | 0.00 | 0.00 | 42 | 1015.6 |
| 20260506072305 | 21 | 181 | 1.6 | 12.9 | 0.00 | 0.00 | 0.00 | 42 | 1015.8 |
| 20260506072203 | 22 | 185 | 1.6 | 12.9 | 0.00 | 0.00 | 0.00 | 42 | 1015.8 |
| 20260506072103 | 22 | 201 | 1.6 | 9.7 | 0.00 | 0.00 | 0.00 | 41 | 1015.6 |
| 20260506072003 | 21 | 203 | 1.6 | 9.7 | 0.00 | 0.00 | 0.00 | 42 | 1015.7 |
| 20260506071903 | 21 | 203 | 0.0 | 9.7 | 0.00 | 0.00 | 0.00 | 42 | 1016.0 |
| 20260506071803 | 21 | 214 | 0.0 | 9.7 | 0.00 | 0.00 | 0.00 | 43 | 1015.7 |
| 20260506071703 | 21 | 212 | 0.0 | 9.7 | 0.00 | 0.00 | 0.00 | 43 | 1015.7 |
| 20260506071603 | 21 | 203 | 0.0 | 9.7 | 0.00 | 0.00 | 0.00 | 43 | 1015.8 |
| 20260506071503 | 21 | 203 | 0.0 | 9.7 | 0.00 | 0.00 | 0.00 | 44 | 1015.6 |
| 20260506071424 | 21 | 202 | 0.0 | 9.7 | 0.00 | 0.00 | 0.00 | 44 | 1015.8 |
| 20260506071324 | 21 | 200 | 0.0 | 9.7 | 0.00 | 0.00 | 0.00 | 44 | 1015.9 |
| 20260506071224 | 21 | 196 | 0.0 | 9.7 | 0.00 | 0.00 | 0.00 | 43 | 1015.8 |
| 20260506071103 | 21 | 171 | 0.0 | 4.8 | 0.00 | 0.00 | 0.00 | 43 | 1015.8 |
| 20260506071003 | 21 | 181 | 0.0 | 6.4 | 0.00 | 0.00 | 0.00 | 44 | 1015.6 |
| 20260506070903 | 20 | 190 | 1.6 | 6.4 | 0.00 | 0.00 | 0.00 | 44 | 1015.9 |
| 20260506070803 | 20 | 193 | 1.6 | 6.4 | 0.00 | 0.00 | 0.00 | 45 | 1015.7 |
| 20260506070703 | 20 | 196 | 1.6 | 6.4 | 0.00 | 0.00 | 0.00 | 45 | 1015.8 |
| 20260506070624 | 20 | 197 | 1.6 | 6.4 | 0.00 | 0.00 | 0.00 | 45 | 1015.9 |
| 20260506070503 | 20 | 198 | 1.6 | 6.4 | 0.00 | 0.00 | 0.00 | 45 | 1015.9 |
| 20260506070403 | 20 | 200 | 1.6 | 6.4 | 0.00 | 0.00 | 0.00 | 45 | 1015.7 |
| 20260506070303 | 20 | 201 | 1.6 | 6.4 | 0.00 | 0.00 | 0.00 | 45 | 1015.8 |
| 20260506070226 | 20 | 198 | 1.6 | 6.4 | 0.00 | 0.00 | 0.00 | 46 | 1015.7 |
| 20260506070103 | 20 | 200 | 1.6 | 6.4 | 0.00 | 0.00 | 0.00 | 46 | 1015.9 |
| 20260506062503 | 18 | 183 | 1.6 | 9.7 | 0.00 | 0.00 | 0.00 | 48 | 1015.9 |
| 20260506062403 | 18 | 188 | 1.6 | 9.7 | 0.00 | 0.00 | 0.00 | 48 | 1015.8 |
| 20260506062324 | 18 | 185 | 1.6 | 9.7 | 0.00 | 0.00 | 0.00 | 48 | 1015.7 |
| 20260506062203 | 18 | 184 | 1.6 | 9.7 | 0.00 | 0.00 | 0.00 | 49 | 1015.8 |
| 20260506062103 | 18 | 185 | 0.0 | 9.7 | 0.00 | 0.00 | 0.00 | 48 | 1015.6 |
| 20260506062003 | 18 | 182 | 0.0 | 6.4 | 0.00 | 0.00 | 0.00 | 49 | 1015.9 |
| 20260506061903 | 18 | 178 | 0.0 | 6.4 | 0.00 | 0.00 | 0.00 | 48 | 1015.8 |
| 20260506061803 | 18 | 174 | 1.6 | 6.4 | 0.00 | 0.00 | 0.00 | 48 | 1015.8 |
| 20260506061703 | 18 | 181 | 1.6 | 9.7 | 0.00 | 0.00 | 0.00 | 48 | 1015.9 |
| 20260506061603 | 18 | 183 | 1.6 | 9.7 | 0.00 | 0.00 | 0.00 | 49 | 1016.0 |
| 20260506061524 | 18 | 186 | 1.6 | 9.7 | 0.00 | 0.00 | 0.00 | 49 | 1015.6 |
| 20260506061403 | 18 | 185 | 1.6 | 9.7 | 0.00 | 0.00 | 0.00 | 48 | 1015.8 |
| 20260506061303 | 18 | 192 | 1.6 | 9.7 | 0.00 | 0.00 | 0.00 | 50 | 1015.8 |
| 20260506061203 | 18 | 198 | 1.6 | 9.7 | 0.00 | 0.00 | 0.00 | 49 | 1015.8 |
| 20260506061124 | 18 | 197 | 1.6 | 9.7 | 0.00 | 0.00 | 0.00 | 49 | 1015.8 |
| 20260506061003 | 18 | 196 | 1.6 | 9.7 | 0.00 | 0.00 | 0.00 | 50 | 1015.8 |
| 20260506060924 | 18 | 197 | 1.6 | 9.7 | 0.00 | 0.00 | 0.00 | 50 | 1015.8 |
| 20260506060803 | 18 | 209 | 1.6 | 9.7 | 0.00 | 0.00 | 0.00 | 49 | 1015.9 |
| 20260506060703 | 17 | 208 | 1.6 | 9.7 | 0.00 | 0.00 | 0.00 | 51 | 1015.9 |
| 20260506060603 | 17 | 207 | 1.6 | 9.7 | 0.00 | 0.00 | 0.00 | 50 | 1015.8 |
| 20260506060503 | 17 | 208 | 1.6 | 9.7 | 0.00 | 0.00 | 0.00 | 51 | 1015.8 |
| 20260506060403 | 17 | 212 | 1.6 | 9.7 | 0.00 | 0.00 | 0.00 | 50 | 1015.8 |
| 20260506060303 | 17 | 213 | 1.6 | 9.7 | 0.00 | 0.00 | 0.00 | 50 | 1015.6 |
| 20260506060203 | 17 | 206 | 0.0 | 9.7 | 0.00 | 0.00 | 0.00 | 51 | 1015.8 |
| 20260506051403 | 16 | 172 | 1.6 | 9.7 | 0.00 | 0.00 | 0.00 | 54 | 1015.8 |
| 20260506051303 | 16 | 176 | 1.6 | 11.3 | 0.00 | 0.00 | 0.00 | 54 | 1015.8 |
| 20260506051203 | 16 | 180 | 1.6 | 11.3 | 0.00 | 0.00 | 0.00 | 55 | 1015.7 |
| 20260506051124 | 16 | 182 | 1.6 | 11.3 | 0.00 | 0.00 | 0.00 | 55 | 1015.6 |
| 20260506051003 | 16 | 190 | 1.6 | 11.3 | 0.00 | 0.00 | 0.00 | 55 | 1015.7 |
| 20260506050903 | 16 | 186 | 1.6 | 11.3 | 0.00 | 0.00 | 0.00 | 55 | 1015.7 |
| 20260506050803 | 15 | 185 | 1.6 | 11.3 | 0.00 | 0.00 | 0.00 | 56 | 1015.8 |
| 20260506050703 | 15 | 185 | 1.6 | 11.3 | 0.00 | 0.00 | 0.00 | 55 | 1015.8 |
| 20260506050603 | 15 | 184 | 1.6 | 11.3 | 0.00 | 0.00 | 0.00 | 56 | 1015.7 |
| 20260506050503 | 15 | 184 | 1.6 | 11.3 | 0.00 | 0.00 | 0.00 | 56 | 1015.4 |
| 20260506050403 | 15 | 184 | 1.6 | 11.3 | 0.00 | 0.00 | 0.00 | 56 | 1015.5 |
| 20260506050324 | 15 | 185 | 1.6 | 11.3 | 0.00 | 0.00 | 0.00 | 56 | 1015.5 |
| 20260506050203 | 15 | 179 | 1.6 | 9.7 | 0.00 | 0.00 | 0.00 | 56 | 1015.6 |
| 20260506050103 | 15 | 173 | 0.0 | 9.7 | 0.00 | 0.00 | 0.00 | 56 | 1015.6 |
| 20260506045103 | 15 | 171 | 1.6 | 9.7 | 0.00 | 0.00 | 0.00 | 58 | 1015.5 |
| 20260506045003 | 14 | 172 | 1.6 | 9.7 | 0.00 | 0.00 | 0.00 | 59 | 1015.7 |
| 20260506044903 | 14 | 172 | 1.6 | 9.7 | 0.00 | 0.00 | 0.00 | 59 | 1015.6 |
| 20260506044803 | 14 | 175 | 1.6 | 9.7 | 0.00 | 0.00 | 0.00 | 58 | 1015.7 |
| 20260506044703 | 14 | 182 | 1.6 | 9.7 | 0.00 | 0.00 | 0.00 | 59 | 1015.3 |
| 20260506044603 | 14 | 182 | 1.6 | 9.7 | 0.00 | 0.00 | 0.00 | 58 | 1015.4 |
| 20260506044503 | 14 | 187 | 1.6 | 9.7 | 0.00 | 0.00 | 0.00 | 59 | 1015.5 |
| 20260506044403 | 14 | 185 | 0.0 | 6.4 | 0.00 | 0.00 | 0.00 | 59 | 1015.5 |
| 20260506044303 | 14 | 187 | 0.0 | 6.4 | 0.00 | 0.00 | 0.00 | 59 | 1015.5 |
| 20260506044224 | 14 | 188 | 0.0 | 6.4 | 0.00 | 0.00 | 0.00 | 59 | 1015.6 |
| 20260506044103 | 14 | 188 | 0.0 | 6.4 | 0.00 | 0.00 | 0.00 | 59 | 1015.5 |
| 20260506044003 | 13 | 196 | 0.0 | 4.8 | 0.00 | 0.00 | 0.00 | 59 | 1015.5 |
| 20260506043903 | 13 | 196 | 0.0 | 4.8 | 0.00 | 0.00 | 0.00 | 60 | 1015.3 |
| 20260506043803 | 14 | 204 | 0.0 | 4.8 | 0.00 | 0.00 | 0.00 | 59 | 1015.6 |
| 20260506043724 | 14 | 184 | 0.0 | 4.8 | 0.00 | 0.00 | 0.00 | 59 | 1015.6 |
| 20260506043603 | 14 | 175 | 0.0 | 4.8 | 0.00 | 0.00 | 0.00 | 59 | 1015.3 |
| 20260506043503 | 14 | 172 | 0.0 | 4.8 | 0.00 | 0.00 | 0.00 | 58 | 1015.5 |
| 20260506043403 | 14 | 170 | 0.0 | 4.8 | 0.00 | 0.00 | 0.00 | 58 | 1015.2 |
| 20260506043303 | 14 | 170 | 0.0 | 4.8 | 0.00 | 0.00 | 0.00 | 58 | 1015.4 |
| 20260506043203 | 13 | 170 | 0.0 | 4.8 | 0.00 | 0.00 | 0.00 | 59 | 1015.7 |
| 20260506043103 | 13 | 170 | 0.0 | 4.8 | 0.00 | 0.00 | 0.00 | 60 | 1015.4 |
| 20260506043003 | 13 | 170 | 0.0 | 4.8 | 0.00 | 0.00 | 0.00 | 61 | 1015.3 |
| 20260506042903 | 13 | 170 | 0.0 | 4.8 | 0.00 | 0.00 | 0.00 | 60 | 1015.4 |
| 20260506042803 | 13 | 170 | 0.0 | 4.8 | 0.00 | 0.00 | 0.00 | 60 | 1015.4 |
| 20260506042724 | 13 | 172 | 0.0 | 4.8 | 0.00 | 0.00 | 0.00 | 60 | 1015.5 |
| 20260506042624 | 13 | 0 | 0.0 | 0.0 | 0.00 | 0.00 | 0.00 | 60 | 1015.3 |
| 20260506042503 | 13 | 0 | 0.0 | 0.0 | 0.00 | 0.00 | 0.00 | 61 | 1015.6 |
| 20260506042404 | 13 | 0 | 0.0 | 0.0 | 0.00 | 0.00 | 0.00 | 61 | 1015.5 |
| 20260506042305 | 13 | 0 | 0.0 | 0.0 | 0.00 | 0.00 | 0.00 | 61 | 1015.4 |
| 20260506042203 | 13 | 0 | 0.0 | 0.0 | 0.00 | 0.00 | 0.00 | 61 | 1015.5 |
| 20260506042103 | 13 | 0 | 0.0 | 0.0 | 0.00 | 0.00 | 0.00 | 61 | 1015.5 |
| 20260506042003 | 13 | 0 | 0.0 | 0.0 | 0.00 | 0.00 | 0.00 | 62 | 1015.5 |
| 20260506041903 | 13 | 0 | 0.0 | 0.0 | 0.00 | 0.00 | 0.00 | 62 | 1015.4 |
| 20260506041803 | 13 | 0 | 0.0 | 0.0 | 0.00 | 0.00 | 0.00 | 62 | 1015.5 |
| 20260506041724 | 13 | 0 | 0.0 | 0.0 | 0.00 | 0.00 | 0.00 | 61 | 1015.5 |
| 20260506041603 | 13 | 0 | 0.0 | 0.0 | 0.00 | 0.00 | 0.00 | 62 | 1015.4 |
| 20260506041524 | 13 | 0 | 0.0 | 0.0 | 0.00 | 0.00 | 0.00 | 62 | 1015.4 |
| 20260506041403 | 12 | 0 | 0.0 | 0.0 | 0.00 | 0.00 | 0.00 | 62 | 1015.3 |
| 20260506041303 | 12 | 0 | 0.0 | 0.0 | 0.00 | 0.00 | 0.00 | 63 | 1015.4 |
| 20260506041203 | 12 | 0 | 0.0 | 0.0 | 0.00 | 0.00 | 0.00 | 62 | 1015.3 |
| 20260506041104 | 12 | 0 | 0.0 | 0.0 | 0.00 | 0.00 | 0.00 | 63 | 1015.4 |
| 20260506041003 | 12 | 0 | 0.0 | 0.0 | 0.00 | 0.00 | 0.00 | 63 | 1015.3 |
| 20260506040924 | 12 | 0 | 0.0 | 0.0 | 0.00 | 0.00 | 0.00 | 63 | 1015.5 |
| 20260506040803 | 12 | 0 | 0.0 | 0.0 | 0.00 | 0.00 | 0.00 | 63 | 1015.3 |
| 20260506040724 | 12 | 0 | 0.0 | 0.0 | 0.00 | 0.00 | 0.00 | 63 | 1015.3 |
| 20260506040603 | 12 | 0 | 0.0 | 0.0 | 0.00 | 0.00 | 0.00 | 63 | 1015.4 |
| 20260506040503 | 12 | 0 | 0.0 | 0.0 | 0.00 | 0.00 | 0.00 | 63 | 1015.4 |
| 20260506040403 | 12 | 0 | 0.0 | 0.0 | 0.00 | 0.00 | 0.00 | 63 | 1015.4 |
| 20260506040303 | 12 | 0 | 0.0 | 0.0 | 0.00 | 0.00 | 0.00 | 64 | 1015.2 |
| 20260506040203 | 12 | 0 | 0.0 | 0.0 | 0.00 | 0.00 | 0.00 | 64 | 1015.4 |
| 20260506040124 | 12 | 0 | 0.0 | 0.0 | 0.00 | 0.00 | 0.00 | 64 | 1015.3 |
| 20260506040003 | 11 | 0 | 0.0 | 0.0 | 0.00 | 0.00 | 0.00 | 65 | 1015.4 |
| 20260506035903 | 11 | 0 | 0.0 | 0.0 | 0.00 | 0.00 | 0.00 | 65 | 1015.3 |
| 20260506035803 | 11 | 163 | 0.0 | 1.6 | 0.00 | 0.00 | 0.00 | 65 | 1015.3 |
| 20260506035703 | 11 | 163 | 0.0 | 1.6 | 0.00 | 0.00 | 0.00 | 65 | 1015.2 |